<?xml version="1.0" encoding="UTF-8" standalone="no" ?>
<gpx xmlns="http://www.topografix.com/GPX/1/1" xmlns:xsi="http://www.w3.org/2001/XMLSchema-instance" xsi:schemaLocation="http://www.topografix.com/GPX/1/1 http://www.topografix.com/GPX/1/1/gpx.xsd" version="1.1" creator="VisuGPX - https://www.visugpx.com">
  <metadata>
    <name>Boucle de la Malène, Roc du Serre</name>
    <desc><![CDATA[Traverser le pont sur le Tarn, puis, obliquez de suite à gauche sentier montant  fléché jaune.  Suivre les nombreuses flèches jaunes. Au hameau de Riesse, quitter le sentier pour profiter de la très belle vue sur la Malène depuis le Roc du Serre. Puis reprendre le sentier jaune. 
Plus loin, évitez de payer le panorama au Roc des Hourtous. Il y en de bien plus beaux et gratuits plus loin!
Retour par la droite au sentier longeant le tarn.]]></desc>
  </metadata>
  <trk>
    <name><![CDATA[Boucle de la Malène, Roc du Serre_1]]></name>
    <trkseg>
      <trkpt lat="44.30109" lon="3.32113">
        <ele>455</ele>
        <time>2014-05-31T08:36:45Z</time>
      </trkpt>
      <trkpt lat="44.30116" lon="3.32077">
        <ele>450</ele>
        <time>2014-05-31T08:37:15Z</time>
      </trkpt>
      <trkpt lat="44.30123" lon="3.32067">
        <ele>450</ele>
        <time>2014-05-31T08:37:24Z</time>
      </trkpt>
      <trkpt lat="44.3012" lon="3.32053">
        <ele>450</ele>
        <time>2014-05-31T08:37:33Z</time>
      </trkpt>
      <trkpt lat="44.3012" lon="3.32039">
        <ele>450</ele>
        <time>2014-05-31T08:37:43Z</time>
      </trkpt>
      <trkpt lat="44.30116" lon="3.32031">
        <ele>450</ele>
        <time>2014-05-31T08:37:52Z</time>
      </trkpt>
      <trkpt lat="44.30105" lon="3.32033">
        <ele>447</ele>
        <time>2014-05-31T08:38:01Z</time>
      </trkpt>
      <trkpt lat="44.30095" lon="3.32039">
        <ele>445</ele>
        <time>2014-05-31T08:38:10Z</time>
      </trkpt>
      <trkpt lat="44.30087" lon="3.3204">
        <ele>443</ele>
        <time>2014-05-31T08:38:19Z</time>
      </trkpt>
      <trkpt lat="44.3008" lon="3.32048">
        <ele>442</ele>
        <time>2014-05-31T08:38:28Z</time>
      </trkpt>
      <trkpt lat="44.30075" lon="3.3205">
        <ele>442</ele>
        <time>2014-05-31T08:38:37Z</time>
      </trkpt>
      <trkpt lat="44.30067" lon="3.32056">
        <ele>442</ele>
        <time>2014-05-31T08:38:46Z</time>
      </trkpt>
      <trkpt lat="44.30059" lon="3.32057">
        <ele>445</ele>
        <time>2014-05-31T08:38:56Z</time>
      </trkpt>
      <trkpt lat="44.30052" lon="3.32068">
        <ele>447</ele>
        <time>2014-05-31T08:39:06Z</time>
      </trkpt>
      <trkpt lat="44.30043" lon="3.32072">
        <ele>448</ele>
        <time>2014-05-31T08:39:15Z</time>
      </trkpt>
      <trkpt lat="44.30033" lon="3.32081">
        <ele>450</ele>
        <time>2014-05-31T08:39:24Z</time>
      </trkpt>
      <trkpt lat="44.30029" lon="3.32086">
        <ele>450</ele>
        <time>2014-05-31T08:39:33Z</time>
      </trkpt>
      <trkpt lat="44.30019" lon="3.32089">
        <ele>448</ele>
        <time>2014-05-31T08:39:43Z</time>
      </trkpt>
      <trkpt lat="44.30008" lon="3.32092">
        <ele>448</ele>
        <time>2014-05-31T08:39:52Z</time>
      </trkpt>
      <trkpt lat="44.30001" lon="3.32082">
        <ele>448</ele>
        <time>2014-05-31T08:40:02Z</time>
      </trkpt>
      <trkpt lat="44.29997" lon="3.32069">
        <ele>448</ele>
        <time>2014-05-31T08:40:11Z</time>
      </trkpt>
      <trkpt lat="44.29993" lon="3.32054">
        <ele>448</ele>
        <time>2014-05-31T08:40:20Z</time>
      </trkpt>
      <trkpt lat="44.29992" lon="3.32038">
        <ele>448</ele>
        <time>2014-05-31T08:40:29Z</time>
      </trkpt>
      <trkpt lat="44.2999" lon="3.3202">
        <ele>448</ele>
        <time>2014-05-31T08:40:39Z</time>
      </trkpt>
      <trkpt lat="44.2999" lon="3.32005">
        <ele>448</ele>
        <time>2014-05-31T08:40:48Z</time>
      </trkpt>
      <trkpt lat="44.29991" lon="3.3199">
        <ele>448</ele>
        <time>2014-05-31T08:40:58Z</time>
      </trkpt>
      <trkpt lat="44.2999" lon="3.31978">
        <ele>448</ele>
        <time>2014-05-31T08:41:07Z</time>
      </trkpt>
      <trkpt lat="44.29989" lon="3.31963">
        <ele>448</ele>
        <time>2014-05-31T08:41:16Z</time>
      </trkpt>
      <trkpt lat="44.2999" lon="3.31947">
        <ele>449</ele>
        <time>2014-05-31T08:41:25Z</time>
      </trkpt>
      <trkpt lat="44.2999" lon="3.31932">
        <ele>451</ele>
        <time>2014-05-31T08:41:34Z</time>
      </trkpt>
      <trkpt lat="44.29992" lon="3.31917">
        <ele>455</ele>
        <time>2014-05-31T08:41:43Z</time>
      </trkpt>
      <trkpt lat="44.29994" lon="3.31904">
        <ele>455</ele>
        <time>2014-05-31T08:41:52Z</time>
      </trkpt>
      <trkpt lat="44.29993" lon="3.3189">
        <ele>456</ele>
        <time>2014-05-31T08:42:02Z</time>
      </trkpt>
      <trkpt lat="44.29992" lon="3.31875">
        <ele>458</ele>
        <time>2014-05-31T08:42:11Z</time>
      </trkpt>
      <trkpt lat="44.29989" lon="3.31873">
        <ele>461</ele>
        <time>2014-05-31T08:42:23Z</time>
      </trkpt>
      <trkpt lat="44.29988" lon="3.31874">
        <ele>460</ele>
        <time>2014-05-31T08:42:34Z</time>
      </trkpt>
      <trkpt lat="44.29986" lon="3.31881">
        <ele>457</ele>
        <time>2014-05-31T08:42:43Z</time>
      </trkpt>
      <trkpt lat="44.29984" lon="3.31889">
        <ele>456</ele>
        <time>2014-05-31T08:42:52Z</time>
      </trkpt>
      <trkpt lat="44.29985" lon="3.31895">
        <ele>456</ele>
        <time>2014-05-31T08:43:01Z</time>
      </trkpt>
      <trkpt lat="44.29984" lon="3.31902">
        <ele>459</ele>
        <time>2014-05-31T08:43:10Z</time>
      </trkpt>
      <trkpt lat="44.29982" lon="3.31896">
        <ele>459</ele>
        <time>2014-05-31T08:43:19Z</time>
      </trkpt>
      <trkpt lat="44.29979" lon="3.31887">
        <ele>460</ele>
        <time>2014-05-31T08:43:30Z</time>
      </trkpt>
      <trkpt lat="44.29977" lon="3.31881">
        <ele>462</ele>
        <time>2014-05-31T08:43:41Z</time>
      </trkpt>
      <trkpt lat="44.29976" lon="3.31873">
        <ele>467</ele>
        <time>2014-05-31T08:43:51Z</time>
      </trkpt>
      <trkpt lat="44.29974" lon="3.31867">
        <ele>468</ele>
        <time>2014-05-31T08:44:00Z</time>
      </trkpt>
      <trkpt lat="44.29972" lon="3.3186">
        <ele>470</ele>
        <time>2014-05-31T08:44:10Z</time>
      </trkpt>
      <trkpt lat="44.2997" lon="3.31852">
        <ele>472</ele>
        <time>2014-05-31T08:44:20Z</time>
      </trkpt>
      <trkpt lat="44.29969" lon="3.31843">
        <ele>473</ele>
        <time>2014-05-31T08:44:30Z</time>
      </trkpt>
      <trkpt lat="44.29967" lon="3.31833">
        <ele>474</ele>
        <time>2014-05-31T08:44:40Z</time>
      </trkpt>
      <trkpt lat="44.29965" lon="3.31824">
        <ele>475</ele>
        <time>2014-05-31T08:44:50Z</time>
      </trkpt>
      <trkpt lat="44.29965" lon="3.31817">
        <ele>476</ele>
        <time>2014-05-31T08:44:59Z</time>
      </trkpt>
      <trkpt lat="44.29963" lon="3.31809">
        <ele>479</ele>
        <time>2014-05-31T08:45:10Z</time>
      </trkpt>
      <trkpt lat="44.29962" lon="3.31801">
        <ele>480</ele>
        <time>2014-05-31T08:45:20Z</time>
      </trkpt>
      <trkpt lat="44.2996" lon="3.31792">
        <ele>481</ele>
        <time>2014-05-31T08:45:30Z</time>
      </trkpt>
      <trkpt lat="44.2996" lon="3.31782">
        <ele>482</ele>
        <time>2014-05-31T08:45:40Z</time>
      </trkpt>
      <trkpt lat="44.29958" lon="3.31772">
        <ele>482</ele>
        <time>2014-05-31T08:45:49Z</time>
      </trkpt>
      <trkpt lat="44.29956" lon="3.31757">
        <ele>485</ele>
        <time>2014-05-31T08:45:58Z</time>
      </trkpt>
      <trkpt lat="44.29955" lon="3.31746">
        <ele>485</ele>
        <time>2014-05-31T08:46:07Z</time>
      </trkpt>
      <trkpt lat="44.2995" lon="3.31735">
        <ele>485</ele>
        <time>2014-05-31T08:46:16Z</time>
      </trkpt>
      <trkpt lat="44.29944" lon="3.31723">
        <ele>485</ele>
        <time>2014-05-31T08:46:25Z</time>
      </trkpt>
      <trkpt lat="44.29939" lon="3.31709">
        <ele>485</ele>
        <time>2014-05-31T08:46:34Z</time>
      </trkpt>
      <trkpt lat="44.29934" lon="3.31697">
        <ele>485</ele>
        <time>2014-05-31T08:46:44Z</time>
      </trkpt>
      <trkpt lat="44.29934" lon="3.31686">
        <ele>485</ele>
        <time>2014-05-31T08:46:53Z</time>
      </trkpt>
      <trkpt lat="44.29938" lon="3.31673">
        <ele>486</ele>
        <time>2014-05-31T08:47:03Z</time>
      </trkpt>
      <trkpt lat="44.29941" lon="3.31662">
        <ele>489</ele>
        <time>2014-05-31T08:47:13Z</time>
      </trkpt>
      <trkpt lat="44.2994" lon="3.31654">
        <ele>493</ele>
        <time>2014-05-31T08:47:22Z</time>
      </trkpt>
      <trkpt lat="44.29938" lon="3.31647">
        <ele>493</ele>
        <time>2014-05-31T08:47:32Z</time>
      </trkpt>
      <trkpt lat="44.29933" lon="3.31639">
        <ele>493</ele>
        <time>2014-05-31T08:47:42Z</time>
      </trkpt>
      <trkpt lat="44.29929" lon="3.31632">
        <ele>493</ele>
        <time>2014-05-31T08:47:51Z</time>
      </trkpt>
      <trkpt lat="44.29924" lon="3.31623">
        <ele>493</ele>
        <time>2014-05-31T08:48:00Z</time>
      </trkpt>
      <trkpt lat="44.29919" lon="3.31616">
        <ele>493</ele>
        <time>2014-05-31T08:48:10Z</time>
      </trkpt>
      <trkpt lat="44.29916" lon="3.31613">
        <ele>493</ele>
        <time>2014-05-31T08:48:21Z</time>
      </trkpt>
      <trkpt lat="44.29911" lon="3.31611">
        <ele>493</ele>
        <time>2014-05-31T08:48:30Z</time>
      </trkpt>
      <trkpt lat="44.29906" lon="3.31608">
        <ele>494</ele>
        <time>2014-05-31T08:48:39Z</time>
      </trkpt>
      <trkpt lat="44.29907" lon="3.31619">
        <ele>498</ele>
        <time>2014-05-31T08:48:49Z</time>
      </trkpt>
      <trkpt lat="44.2991" lon="3.31628">
        <ele>503</ele>
        <time>2014-05-31T08:48:59Z</time>
      </trkpt>
      <trkpt lat="44.2991" lon="3.31635">
        <ele>505</ele>
        <time>2014-05-31T08:49:08Z</time>
      </trkpt>
      <trkpt lat="44.29911" lon="3.31641">
        <ele>506</ele>
        <time>2014-05-31T08:49:17Z</time>
      </trkpt>
      <trkpt lat="44.29908" lon="3.31641">
        <ele>507</ele>
        <time>2014-05-31T08:49:28Z</time>
      </trkpt>
      <trkpt lat="44.29903" lon="3.31638">
        <ele>509</ele>
        <time>2014-05-31T08:49:37Z</time>
      </trkpt>
      <trkpt lat="44.29898" lon="3.31633">
        <ele>513</ele>
        <time>2014-05-31T08:49:47Z</time>
      </trkpt>
      <trkpt lat="44.29892" lon="3.31631">
        <ele>514</ele>
        <time>2014-05-31T08:49:56Z</time>
      </trkpt>
      <trkpt lat="44.29889" lon="3.31633">
        <ele>514</ele>
        <time>2014-05-31T08:50:06Z</time>
      </trkpt>
      <trkpt lat="44.2989" lon="3.31642">
        <ele>514</ele>
        <time>2014-05-31T08:50:16Z</time>
      </trkpt>
      <trkpt lat="44.2989" lon="3.31646">
        <ele>516</ele>
        <time>2014-05-31T08:50:29Z</time>
      </trkpt>
      <trkpt lat="44.29886" lon="3.3164">
        <ele>518</ele>
        <time>2014-05-31T08:50:40Z</time>
      </trkpt>
      <trkpt lat="44.29881" lon="3.31636">
        <ele>522</ele>
        <time>2014-05-31T08:50:49Z</time>
      </trkpt>
      <trkpt lat="44.29875" lon="3.31632">
        <ele>525</ele>
        <time>2014-05-31T08:51:01Z</time>
      </trkpt>
      <trkpt lat="44.29868" lon="3.31625">
        <ele>525</ele>
        <time>2014-05-31T08:51:11Z</time>
      </trkpt>
      <trkpt lat="44.29863" lon="3.31616">
        <ele>525</ele>
        <time>2014-05-31T08:51:21Z</time>
      </trkpt>
      <trkpt lat="44.29855" lon="3.3161">
        <ele>525</ele>
        <time>2014-05-31T08:51:36Z</time>
      </trkpt>
      <trkpt lat="44.2985" lon="3.31607">
        <ele>522</ele>
        <time>2014-05-31T08:51:46Z</time>
      </trkpt>
      <trkpt lat="44.29845" lon="3.31605">
        <ele>525</ele>
        <time>2014-05-31T08:51:56Z</time>
      </trkpt>
      <trkpt lat="44.29839" lon="3.31602">
        <ele>530</ele>
        <time>2014-05-31T08:52:05Z</time>
      </trkpt>
      <trkpt lat="44.29834" lon="3.31599">
        <ele>534</ele>
        <time>2014-05-31T08:52:15Z</time>
      </trkpt>
      <trkpt lat="44.29828" lon="3.31594">
        <ele>535</ele>
        <time>2014-05-31T08:52:26Z</time>
      </trkpt>
      <trkpt lat="44.29821" lon="3.3159">
        <ele>538</ele>
        <time>2014-05-31T08:52:36Z</time>
      </trkpt>
      <trkpt lat="44.29815" lon="3.31584">
        <ele>540</ele>
        <time>2014-05-31T08:52:46Z</time>
      </trkpt>
      <trkpt lat="44.29809" lon="3.31578">
        <ele>542</ele>
        <time>2014-05-31T08:52:57Z</time>
      </trkpt>
      <trkpt lat="44.29803" lon="3.31573">
        <ele>543</ele>
        <time>2014-05-31T08:53:06Z</time>
      </trkpt>
      <trkpt lat="44.29797" lon="3.31567">
        <ele>544</ele>
        <time>2014-05-31T08:53:17Z</time>
      </trkpt>
      <trkpt lat="44.29792" lon="3.31565">
        <ele>544</ele>
        <time>2014-05-31T08:53:27Z</time>
      </trkpt>
      <trkpt lat="44.29787" lon="3.31558">
        <ele>542</ele>
        <time>2014-05-31T08:53:37Z</time>
      </trkpt>
      <trkpt lat="44.29782" lon="3.31553">
        <ele>541</ele>
        <time>2014-05-31T08:53:46Z</time>
      </trkpt>
      <trkpt lat="44.29775" lon="3.31552">
        <ele>535</ele>
        <time>2014-05-31T08:53:57Z</time>
      </trkpt>
      <trkpt lat="44.29769" lon="3.31546">
        <ele>537</ele>
        <time>2014-05-31T08:54:06Z</time>
      </trkpt>
      <trkpt lat="44.29761" lon="3.31541">
        <ele>542</ele>
        <time>2014-05-31T08:54:16Z</time>
      </trkpt>
      <trkpt lat="44.29759" lon="3.31545">
        <ele>549</ele>
        <time>2014-05-31T08:54:27Z</time>
      </trkpt>
      <trkpt lat="44.29765" lon="3.31553">
        <ele>551</ele>
        <time>2014-05-31T08:54:37Z</time>
      </trkpt>
      <trkpt lat="44.29769" lon="3.31561">
        <ele>552</ele>
        <time>2014-05-31T08:54:47Z</time>
      </trkpt>
      <trkpt lat="44.29772" lon="3.3157">
        <ele>553</ele>
        <time>2014-05-31T08:54:57Z</time>
      </trkpt>
      <trkpt lat="44.29774" lon="3.3158">
        <ele>553</ele>
        <time>2014-05-31T08:55:07Z</time>
      </trkpt>
      <trkpt lat="44.2978" lon="3.3159">
        <ele>557</ele>
        <time>2014-05-31T08:55:17Z</time>
      </trkpt>
      <trkpt lat="44.29784" lon="3.316">
        <ele>559</ele>
        <time>2014-05-31T08:55:27Z</time>
      </trkpt>
      <trkpt lat="44.29787" lon="3.31609">
        <ele>559</ele>
        <time>2014-05-31T08:55:36Z</time>
      </trkpt>
      <trkpt lat="44.29791" lon="3.31619">
        <ele>559</ele>
        <time>2014-05-31T08:55:46Z</time>
      </trkpt>
      <trkpt lat="44.29794" lon="3.3163">
        <ele>560</ele>
        <time>2014-05-31T08:55:56Z</time>
      </trkpt>
      <trkpt lat="44.29798" lon="3.31642">
        <ele>560</ele>
        <time>2014-05-31T08:56:06Z</time>
      </trkpt>
      <trkpt lat="44.29804" lon="3.31652">
        <ele>560</ele>
        <time>2014-05-31T08:56:16Z</time>
      </trkpt>
      <trkpt lat="44.2981" lon="3.31662">
        <ele>562</ele>
        <time>2014-05-31T08:56:26Z</time>
      </trkpt>
      <trkpt lat="44.29814" lon="3.31668">
        <ele>562</ele>
        <time>2014-05-31T08:56:35Z</time>
      </trkpt>
      <trkpt lat="44.29819" lon="3.31674">
        <ele>562</ele>
        <time>2014-05-31T08:56:46Z</time>
      </trkpt>
      <trkpt lat="44.29824" lon="3.3168">
        <ele>563</ele>
        <time>2014-05-31T08:56:57Z</time>
      </trkpt>
      <trkpt lat="44.29822" lon="3.31681">
        <ele>563</ele>
        <time>2014-05-31T08:57:06Z</time>
      </trkpt>
      <trkpt lat="44.29817" lon="3.31678">
        <ele>566</ele>
        <time>2014-05-31T08:57:16Z</time>
      </trkpt>
      <trkpt lat="44.29818" lon="3.31685">
        <ele>570</ele>
        <time>2014-05-31T08:57:25Z</time>
      </trkpt>
      <trkpt lat="44.29822" lon="3.3169">
        <ele>571</ele>
        <time>2014-05-31T08:57:34Z</time>
      </trkpt>
      <trkpt lat="44.29818" lon="3.31693">
        <ele>574</ele>
        <time>2014-05-31T08:57:44Z</time>
      </trkpt>
      <trkpt lat="44.29819" lon="3.317">
        <ele>574</ele>
        <time>2014-05-31T08:57:53Z</time>
      </trkpt>
      <trkpt lat="44.29815" lon="3.31699">
        <ele>576</ele>
        <time>2014-05-31T08:58:02Z</time>
      </trkpt>
      <trkpt lat="44.29812" lon="3.31695">
        <ele>576</ele>
        <time>2014-05-31T08:58:12Z</time>
      </trkpt>
      <trkpt lat="44.29808" lon="3.31691">
        <ele>578</ele>
        <time>2014-05-31T08:58:22Z</time>
      </trkpt>
      <trkpt lat="44.29806" lon="3.31687">
        <ele>578</ele>
        <time>2014-05-31T08:58:32Z</time>
      </trkpt>
      <trkpt lat="44.298" lon="3.31682">
        <ele>587</ele>
        <time>2014-05-31T08:58:43Z</time>
      </trkpt>
      <trkpt lat="44.29794" lon="3.31674">
        <ele>587</ele>
        <time>2014-05-31T08:58:53Z</time>
      </trkpt>
      <trkpt lat="44.29788" lon="3.31671">
        <ele>586</ele>
        <time>2014-05-31T08:59:03Z</time>
      </trkpt>
      <trkpt lat="44.29779" lon="3.31667">
        <ele>586</ele>
        <time>2014-05-31T08:59:13Z</time>
      </trkpt>
      <trkpt lat="44.29774" lon="3.31657">
        <ele>586</ele>
        <time>2014-05-31T08:59:23Z</time>
      </trkpt>
      <trkpt lat="44.29766" lon="3.31644">
        <ele>586</ele>
        <time>2014-05-31T08:59:33Z</time>
      </trkpt>
      <trkpt lat="44.2976" lon="3.31637">
        <ele>586</ele>
        <time>2014-05-31T08:59:43Z</time>
      </trkpt>
      <trkpt lat="44.29755" lon="3.31625">
        <ele>586</ele>
        <time>2014-05-31T08:59:52Z</time>
      </trkpt>
      <trkpt lat="44.29751" lon="3.31612">
        <ele>586</ele>
        <time>2014-05-31T09:00:01Z</time>
      </trkpt>
      <trkpt lat="44.29745" lon="3.31601">
        <ele>586</ele>
        <time>2014-05-31T09:00:10Z</time>
      </trkpt>
      <trkpt lat="44.29737" lon="3.31595">
        <ele>586</ele>
        <time>2014-05-31T09:00:20Z</time>
      </trkpt>
      <trkpt lat="44.2973" lon="3.31591">
        <ele>586</ele>
        <time>2014-05-31T09:00:30Z</time>
      </trkpt>
      <trkpt lat="44.29723" lon="3.31586">
        <ele>586</ele>
        <time>2014-05-31T09:00:40Z</time>
      </trkpt>
      <trkpt lat="44.29716" lon="3.31579">
        <ele>588</ele>
        <time>2014-05-31T09:00:50Z</time>
      </trkpt>
      <trkpt lat="44.29707" lon="3.31575">
        <ele>588</ele>
        <time>2014-05-31T09:00:59Z</time>
      </trkpt>
      <trkpt lat="44.29697" lon="3.31566">
        <ele>588</ele>
        <time>2014-05-31T09:01:08Z</time>
      </trkpt>
      <trkpt lat="44.29688" lon="3.31563">
        <ele>588</ele>
        <time>2014-05-31T09:01:18Z</time>
      </trkpt>
      <trkpt lat="44.29677" lon="3.31555">
        <ele>589</ele>
        <time>2014-05-31T09:01:27Z</time>
      </trkpt>
      <trkpt lat="44.29666" lon="3.31551">
        <ele>589</ele>
        <time>2014-05-31T09:01:36Z</time>
      </trkpt>
      <trkpt lat="44.29656" lon="3.31554">
        <ele>589</ele>
        <time>2014-05-31T09:01:45Z</time>
      </trkpt>
      <trkpt lat="44.29647" lon="3.31559">
        <ele>589</ele>
        <time>2014-05-31T09:01:55Z</time>
      </trkpt>
      <trkpt lat="44.29639" lon="3.31558">
        <ele>589</ele>
        <time>2014-05-31T09:02:05Z</time>
      </trkpt>
      <trkpt lat="44.29632" lon="3.31548">
        <ele>589</ele>
        <time>2014-05-31T09:02:15Z</time>
      </trkpt>
      <trkpt lat="44.29628" lon="3.31537">
        <ele>591</ele>
        <time>2014-05-31T09:02:24Z</time>
      </trkpt>
      <trkpt lat="44.29623" lon="3.31527">
        <ele>594</ele>
        <time>2014-05-31T09:02:34Z</time>
      </trkpt>
      <trkpt lat="44.29617" lon="3.31519">
        <ele>595</ele>
        <time>2014-05-31T09:02:44Z</time>
      </trkpt>
      <trkpt lat="44.29603" lon="3.31505">
        <ele>599</ele>
        <time>2014-05-31T09:03:05Z</time>
      </trkpt>
      <trkpt lat="44.29594" lon="3.31503">
        <ele>599</ele>
        <time>2014-05-31T09:03:14Z</time>
      </trkpt>
      <trkpt lat="44.29587" lon="3.31499">
        <ele>599</ele>
        <time>2014-05-31T09:03:24Z</time>
      </trkpt>
      <trkpt lat="44.2958" lon="3.31491">
        <ele>599</ele>
        <time>2014-05-31T09:03:34Z</time>
      </trkpt>
      <trkpt lat="44.29574" lon="3.31481">
        <ele>606</ele>
        <time>2014-05-31T09:03:44Z</time>
      </trkpt>
      <trkpt lat="44.29572" lon="3.31472">
        <ele>613</ele>
        <time>2014-05-31T09:03:54Z</time>
      </trkpt>
      <trkpt lat="44.29569" lon="3.31462">
        <ele>616</ele>
        <time>2014-05-31T09:04:04Z</time>
      </trkpt>
      <trkpt lat="44.29563" lon="3.31454">
        <ele>617</ele>
        <time>2014-05-31T09:04:13Z</time>
      </trkpt>
      <trkpt lat="44.29558" lon="3.31448">
        <ele>617</ele>
        <time>2014-05-31T09:04:22Z</time>
      </trkpt>
      <trkpt lat="44.29552" lon="3.31441">
        <ele>617</ele>
        <time>2014-05-31T09:04:31Z</time>
      </trkpt>
      <trkpt lat="44.29545" lon="3.31433">
        <ele>617</ele>
        <time>2014-05-31T09:04:41Z</time>
      </trkpt>
      <trkpt lat="44.29539" lon="3.31426">
        <ele>617</ele>
        <time>2014-05-31T09:04:51Z</time>
      </trkpt>
      <trkpt lat="44.29533" lon="3.31422">
        <ele>617</ele>
        <time>2014-05-31T09:05:00Z</time>
      </trkpt>
      <trkpt lat="44.29527" lon="3.31418">
        <ele>617</ele>
        <time>2014-05-31T09:05:09Z</time>
      </trkpt>
      <trkpt lat="44.29519" lon="3.31414">
        <ele>618</ele>
        <time>2014-05-31T09:05:19Z</time>
      </trkpt>
      <trkpt lat="44.29512" lon="3.31411">
        <ele>619</ele>
        <time>2014-05-31T09:05:29Z</time>
      </trkpt>
      <trkpt lat="44.29504" lon="3.31409">
        <ele>620</ele>
        <time>2014-05-31T09:05:39Z</time>
      </trkpt>
      <trkpt lat="44.29492" lon="3.31407">
        <ele>625</ele>
        <time>2014-05-31T09:05:56Z</time>
      </trkpt>
      <trkpt lat="44.29485" lon="3.31407">
        <ele>625</ele>
        <time>2014-05-31T09:06:05Z</time>
      </trkpt>
      <trkpt lat="44.29477" lon="3.31405">
        <ele>631</ele>
        <time>2014-05-31T09:06:15Z</time>
      </trkpt>
      <trkpt lat="44.29471" lon="3.31408">
        <ele>636</ele>
        <time>2014-05-31T09:06:25Z</time>
      </trkpt>
      <trkpt lat="44.29465" lon="3.31408">
        <ele>637</ele>
        <time>2014-05-31T09:06:35Z</time>
      </trkpt>
      <trkpt lat="44.29459" lon="3.31405">
        <ele>643</ele>
        <time>2014-05-31T09:06:45Z</time>
      </trkpt>
      <trkpt lat="44.29454" lon="3.31404">
        <ele>644</ele>
        <time>2014-05-31T09:06:56Z</time>
      </trkpt>
      <trkpt lat="44.29448" lon="3.31403">
        <ele>644</ele>
        <time>2014-05-31T09:07:05Z</time>
      </trkpt>
      <trkpt lat="44.29442" lon="3.31398">
        <ele>644</ele>
        <time>2014-05-31T09:07:15Z</time>
      </trkpt>
      <trkpt lat="44.29437" lon="3.31394">
        <ele>644</ele>
        <time>2014-05-31T09:07:24Z</time>
      </trkpt>
      <trkpt lat="44.29431" lon="3.3139">
        <ele>644</ele>
        <time>2014-05-31T09:07:34Z</time>
      </trkpt>
      <trkpt lat="44.29424" lon="3.31389">
        <ele>644</ele>
        <time>2014-05-31T09:07:44Z</time>
      </trkpt>
      <trkpt lat="44.29419" lon="3.31388">
        <ele>645</ele>
        <time>2014-05-31T09:07:53Z</time>
      </trkpt>
      <trkpt lat="44.29413" lon="3.31383">
        <ele>648</ele>
        <time>2014-05-31T09:08:04Z</time>
      </trkpt>
      <trkpt lat="44.29408" lon="3.31378">
        <ele>648</ele>
        <time>2014-05-31T09:08:14Z</time>
      </trkpt>
      <trkpt lat="44.294" lon="3.31373">
        <ele>648</ele>
        <time>2014-05-31T09:08:24Z</time>
      </trkpt>
      <trkpt lat="44.29395" lon="3.31367">
        <ele>648</ele>
        <time>2014-05-31T09:08:33Z</time>
      </trkpt>
      <trkpt lat="44.2939" lon="3.31361">
        <ele>649</ele>
        <time>2014-05-31T09:08:42Z</time>
      </trkpt>
      <trkpt lat="44.29384" lon="3.31356">
        <ele>649</ele>
        <time>2014-05-31T09:08:52Z</time>
      </trkpt>
      <trkpt lat="44.29377" lon="3.31353">
        <ele>649</ele>
        <time>2014-05-31T09:09:02Z</time>
      </trkpt>
      <trkpt lat="44.2937" lon="3.31349">
        <ele>651</ele>
        <time>2014-05-31T09:09:12Z</time>
      </trkpt>
      <trkpt lat="44.29365" lon="3.31345">
        <ele>651</ele>
        <time>2014-05-31T09:09:21Z</time>
      </trkpt>
      <trkpt lat="44.29361" lon="3.31337">
        <ele>658</ele>
        <time>2014-05-31T09:09:32Z</time>
      </trkpt>
      <trkpt lat="44.29354" lon="3.3133">
        <ele>667</ele>
        <time>2014-05-31T09:09:42Z</time>
      </trkpt>
      <trkpt lat="44.29353" lon="3.31324">
        <ele>667</ele>
        <time>2014-05-31T09:09:51Z</time>
      </trkpt>
      <trkpt lat="44.29348" lon="3.31317">
        <ele>667</ele>
        <time>2014-05-31T09:10:00Z</time>
      </trkpt>
      <trkpt lat="44.29341" lon="3.31308">
        <ele>665</ele>
        <time>2014-05-31T09:10:10Z</time>
      </trkpt>
      <trkpt lat="44.29333" lon="3.31301">
        <ele>660</ele>
        <time>2014-05-31T09:10:20Z</time>
      </trkpt>
      <trkpt lat="44.29325" lon="3.31294">
        <ele>656</ele>
        <time>2014-05-31T09:10:29Z</time>
      </trkpt>
      <trkpt lat="44.29326" lon="3.31289">
        <ele>654</ele>
        <time>2014-05-31T09:10:39Z</time>
      </trkpt>
      <trkpt lat="44.29341" lon="3.31297">
        <ele>668</ele>
        <time>2014-05-31T09:10:49Z</time>
      </trkpt>
      <trkpt lat="44.29343" lon="3.31303">
        <ele>670</ele>
        <time>2014-05-31T09:10:58Z</time>
      </trkpt>
      <trkpt lat="44.2934" lon="3.31312">
        <ele>673</ele>
        <time>2014-05-31T09:11:07Z</time>
      </trkpt>
      <trkpt lat="44.29345" lon="3.31322">
        <ele>675</ele>
        <time>2014-05-31T09:11:17Z</time>
      </trkpt>
      <trkpt lat="44.29348" lon="3.3132">
        <ele>678</ele>
        <time>2014-05-31T09:11:26Z</time>
      </trkpt>
      <trkpt lat="44.29355" lon="3.31314">
        <ele>686</ele>
        <time>2014-05-31T09:11:36Z</time>
      </trkpt>
      <trkpt lat="44.29357" lon="3.31306">
        <ele>691</ele>
        <time>2014-05-31T09:11:46Z</time>
      </trkpt>
      <trkpt lat="44.29356" lon="3.31296">
        <ele>693</ele>
        <time>2014-05-31T09:11:56Z</time>
      </trkpt>
      <trkpt lat="44.29344" lon="3.31284">
        <ele>693</ele>
        <time>2014-05-31T09:12:05Z</time>
      </trkpt>
      <trkpt lat="44.29335" lon="3.31275">
        <ele>684</ele>
        <time>2014-05-31T09:12:14Z</time>
      </trkpt>
      <trkpt lat="44.29342" lon="3.31271">
        <ele>682</ele>
        <time>2014-05-31T09:12:23Z</time>
      </trkpt>
      <trkpt lat="44.29338" lon="3.3126">
        <ele>683</ele>
        <time>2014-05-31T09:12:33Z</time>
      </trkpt>
      <trkpt lat="44.29346" lon="3.31254">
        <ele>682</ele>
        <time>2014-05-31T09:12:43Z</time>
      </trkpt>
      <trkpt lat="44.29355" lon="3.31245">
        <ele>686</ele>
        <time>2014-05-31T09:12:54Z</time>
      </trkpt>
      <trkpt lat="44.29348" lon="3.31239">
        <ele>686</ele>
        <time>2014-05-31T09:13:03Z</time>
      </trkpt>
      <trkpt lat="44.2934" lon="3.3124">
        <ele>686</ele>
        <time>2014-05-31T09:13:13Z</time>
      </trkpt>
      <trkpt lat="44.29332" lon="3.31236">
        <ele>688</ele>
        <time>2014-05-31T09:13:23Z</time>
      </trkpt>
      <trkpt lat="44.29325" lon="3.31234">
        <ele>690</ele>
        <time>2014-05-31T09:13:33Z</time>
      </trkpt>
      <trkpt lat="44.29318" lon="3.31237">
        <ele>691</ele>
        <time>2014-05-31T09:13:43Z</time>
      </trkpt>
      <trkpt lat="44.29312" lon="3.31236">
        <ele>691</ele>
        <time>2014-05-31T09:13:52Z</time>
      </trkpt>
      <trkpt lat="44.29306" lon="3.31235">
        <ele>691</ele>
        <time>2014-05-31T09:14:02Z</time>
      </trkpt>
      <trkpt lat="44.29299" lon="3.31237">
        <ele>691</ele>
        <time>2014-05-31T09:14:12Z</time>
      </trkpt>
      <trkpt lat="44.29291" lon="3.31239">
        <ele>694</ele>
        <time>2014-05-31T09:14:23Z</time>
      </trkpt>
      <trkpt lat="44.29286" lon="3.31238">
        <ele>694</ele>
        <time>2014-05-31T09:14:32Z</time>
      </trkpt>
      <trkpt lat="44.29281" lon="3.31237">
        <ele>694</ele>
        <time>2014-05-31T09:14:42Z</time>
      </trkpt>
      <trkpt lat="44.29275" lon="3.31232">
        <ele>696</ele>
        <time>2014-05-31T09:14:51Z</time>
      </trkpt>
      <trkpt lat="44.29269" lon="3.31229">
        <ele>699</ele>
        <time>2014-05-31T09:15:01Z</time>
      </trkpt>
      <trkpt lat="44.29266" lon="3.31222">
        <ele>702</ele>
        <time>2014-05-31T09:15:11Z</time>
      </trkpt>
      <trkpt lat="44.2926" lon="3.31214">
        <ele>703</ele>
        <time>2014-05-31T09:15:21Z</time>
      </trkpt>
      <trkpt lat="44.29255" lon="3.31207">
        <ele>704</ele>
        <time>2014-05-31T09:15:30Z</time>
      </trkpt>
      <trkpt lat="44.29251" lon="3.31194">
        <ele>708</ele>
        <time>2014-05-31T09:15:39Z</time>
      </trkpt>
      <trkpt lat="44.29245" lon="3.31181">
        <ele>709</ele>
        <time>2014-05-31T09:15:48Z</time>
      </trkpt>
      <trkpt lat="44.29245" lon="3.31168">
        <ele>710</ele>
        <time>2014-05-31T09:15:57Z</time>
      </trkpt>
      <trkpt lat="44.2925" lon="3.31155">
        <ele>716</ele>
        <time>2014-05-31T09:16:06Z</time>
      </trkpt>
      <trkpt lat="44.29248" lon="3.3114">
        <ele>716</ele>
        <time>2014-05-31T09:16:15Z</time>
      </trkpt>
      <trkpt lat="44.29249" lon="3.31124">
        <ele>716</ele>
        <time>2014-05-31T09:16:25Z</time>
      </trkpt>
      <trkpt lat="44.2925" lon="3.31112">
        <ele>715</ele>
        <time>2014-05-31T09:16:34Z</time>
      </trkpt>
      <trkpt lat="44.29247" lon="3.31102">
        <ele>711</ele>
        <time>2014-05-31T09:16:44Z</time>
      </trkpt>
      <trkpt lat="44.29243" lon="3.31094">
        <ele>707</ele>
        <time>2014-05-31T09:16:54Z</time>
      </trkpt>
      <trkpt lat="44.29242" lon="3.31096">
        <ele>707</ele>
        <time>2014-05-31T09:17:04Z</time>
      </trkpt>
      <trkpt lat="44.29241" lon="3.31093">
        <ele>710</ele>
        <time>2014-05-31T09:17:13Z</time>
      </trkpt>
      <trkpt lat="44.29235" lon="3.31088">
        <ele>710</ele>
        <time>2014-05-31T09:17:23Z</time>
      </trkpt>
      <trkpt lat="44.29226" lon="3.31089">
        <ele>710</ele>
        <time>2014-05-31T09:17:33Z</time>
      </trkpt>
      <trkpt lat="44.29217" lon="3.3109">
        <ele>706</ele>
        <time>2014-05-31T09:17:47Z</time>
      </trkpt>
      <trkpt lat="44.29207" lon="3.31085">
        <ele>705</ele>
        <time>2014-05-31T09:17:57Z</time>
      </trkpt>
      <trkpt lat="44.292" lon="3.31081">
        <ele>705</ele>
        <time>2014-05-31T09:18:07Z</time>
      </trkpt>
      <trkpt lat="44.29194" lon="3.31076">
        <ele>705</ele>
        <time>2014-05-31T09:18:17Z</time>
      </trkpt>
      <trkpt lat="44.29186" lon="3.31072">
        <ele>705</ele>
        <time>2014-05-31T09:18:27Z</time>
      </trkpt>
      <trkpt lat="44.29178" lon="3.3107">
        <ele>705</ele>
        <time>2014-05-31T09:18:37Z</time>
      </trkpt>
      <trkpt lat="44.29168" lon="3.3107">
        <ele>708</ele>
        <time>2014-05-31T09:18:46Z</time>
      </trkpt>
      <trkpt lat="44.29162" lon="3.31069">
        <ele>711</ele>
        <time>2014-05-31T09:18:58Z</time>
      </trkpt>
      <trkpt lat="44.29161" lon="3.31059">
        <ele>711</ele>
        <time>2014-05-31T09:19:07Z</time>
      </trkpt>
      <trkpt lat="44.29164" lon="3.31051">
        <ele>719</ele>
        <time>2014-05-31T09:19:16Z</time>
      </trkpt>
      <trkpt lat="44.29169" lon="3.31044">
        <ele>725</ele>
        <time>2014-05-31T09:19:26Z</time>
      </trkpt>
      <trkpt lat="44.29171" lon="3.31035">
        <ele>725</ele>
        <time>2014-05-31T09:19:36Z</time>
      </trkpt>
      <trkpt lat="44.29176" lon="3.31029">
        <ele>726</ele>
        <time>2014-05-31T09:19:47Z</time>
      </trkpt>
      <trkpt lat="44.29181" lon="3.31024">
        <ele>727</ele>
        <time>2014-05-31T09:19:56Z</time>
      </trkpt>
      <trkpt lat="44.29183" lon="3.3102">
        <ele>730</ele>
        <time>2014-05-31T09:20:06Z</time>
      </trkpt>
      <trkpt lat="44.29187" lon="3.31015">
        <ele>731</ele>
        <time>2014-05-31T09:20:16Z</time>
      </trkpt>
      <trkpt lat="44.29182" lon="3.31015">
        <ele>731</ele>
        <time>2014-05-31T09:20:25Z</time>
      </trkpt>
      <trkpt lat="44.29177" lon="3.31014">
        <ele>731</ele>
        <time>2014-05-31T09:20:34Z</time>
      </trkpt>
      <trkpt lat="44.29171" lon="3.31014">
        <ele>731</ele>
        <time>2014-05-31T09:20:44Z</time>
      </trkpt>
      <trkpt lat="44.29171" lon="3.3101">
        <ele>738</ele>
        <time>2014-05-31T09:20:55Z</time>
      </trkpt>
      <trkpt lat="44.29173" lon="3.31006">
        <ele>741</ele>
        <time>2014-05-31T09:21:05Z</time>
      </trkpt>
      <trkpt lat="44.29177" lon="3.31002">
        <ele>743</ele>
        <time>2014-05-31T09:21:15Z</time>
      </trkpt>
      <trkpt lat="44.29181" lon="3.30997">
        <ele>744</ele>
        <time>2014-05-31T09:21:25Z</time>
      </trkpt>
      <trkpt lat="44.29188" lon="3.30992">
        <ele>744</ele>
        <time>2014-05-31T09:21:35Z</time>
      </trkpt>
      <trkpt lat="44.29192" lon="3.30987">
        <ele>745</ele>
        <time>2014-05-31T09:21:45Z</time>
      </trkpt>
      <trkpt lat="44.29199" lon="3.30982">
        <ele>745</ele>
        <time>2014-05-31T09:21:54Z</time>
      </trkpt>
      <trkpt lat="44.29203" lon="3.30976">
        <ele>745</ele>
        <time>2014-05-31T09:22:04Z</time>
      </trkpt>
      <trkpt lat="44.29208" lon="3.30971">
        <ele>745</ele>
        <time>2014-05-31T09:22:13Z</time>
      </trkpt>
      <trkpt lat="44.29214" lon="3.30966">
        <ele>746</ele>
        <time>2014-05-31T09:22:23Z</time>
      </trkpt>
      <trkpt lat="44.2922" lon="3.30961">
        <ele>747</ele>
        <time>2014-05-31T09:22:32Z</time>
      </trkpt>
      <trkpt lat="44.29227" lon="3.30956">
        <ele>748</ele>
        <time>2014-05-31T09:22:41Z</time>
      </trkpt>
      <trkpt lat="44.29233" lon="3.30952">
        <ele>749</ele>
        <time>2014-05-31T09:22:50Z</time>
      </trkpt>
      <trkpt lat="44.29239" lon="3.30949">
        <ele>752</ele>
        <time>2014-05-31T09:23:00Z</time>
      </trkpt>
      <trkpt lat="44.29246" lon="3.30946">
        <ele>753</ele>
        <time>2014-05-31T09:23:11Z</time>
      </trkpt>
      <trkpt lat="44.29252" lon="3.30944">
        <ele>755</ele>
        <time>2014-05-31T09:23:20Z</time>
      </trkpt>
      <trkpt lat="44.29257" lon="3.30944">
        <ele>756</ele>
        <time>2014-05-31T09:23:29Z</time>
      </trkpt>
      <trkpt lat="44.29255" lon="3.3094">
        <ele>757</ele>
        <time>2014-05-31T09:23:39Z</time>
      </trkpt>
      <trkpt lat="44.2925" lon="3.30938">
        <ele>757</ele>
        <time>2014-05-31T09:23:50Z</time>
      </trkpt>
      <trkpt lat="44.29245" lon="3.30936">
        <ele>757</ele>
        <time>2014-05-31T09:23:59Z</time>
      </trkpt>
      <trkpt lat="44.29238" lon="3.30935">
        <ele>757</ele>
        <time>2014-05-31T09:24:09Z</time>
      </trkpt>
      <trkpt lat="44.29232" lon="3.30934">
        <ele>757</ele>
        <time>2014-05-31T09:24:19Z</time>
      </trkpt>
      <trkpt lat="44.29225" lon="3.30934">
        <ele>757</ele>
        <time>2014-05-31T09:24:30Z</time>
      </trkpt>
      <trkpt lat="44.29218" lon="3.30933">
        <ele>757</ele>
        <time>2014-05-31T09:24:40Z</time>
      </trkpt>
      <trkpt lat="44.29211" lon="3.30934">
        <ele>759</ele>
        <time>2014-05-31T09:24:50Z</time>
      </trkpt>
      <trkpt lat="44.29203" lon="3.30935">
        <ele>760</ele>
        <time>2014-05-31T09:25:00Z</time>
      </trkpt>
      <trkpt lat="44.29198" lon="3.30935">
        <ele>760</ele>
        <time>2014-05-31T09:25:09Z</time>
      </trkpt>
      <trkpt lat="44.29192" lon="3.30933">
        <ele>760</ele>
        <time>2014-05-31T09:25:19Z</time>
      </trkpt>
      <trkpt lat="44.29185" lon="3.30934">
        <ele>763</ele>
        <time>2014-05-31T09:25:29Z</time>
      </trkpt>
      <trkpt lat="44.29178" lon="3.30937">
        <ele>765</ele>
        <time>2014-05-31T09:25:40Z</time>
      </trkpt>
      <trkpt lat="44.29172" lon="3.30936">
        <ele>769</ele>
        <time>2014-05-31T09:25:49Z</time>
      </trkpt>
      <trkpt lat="44.29166" lon="3.30937">
        <ele>770</ele>
        <time>2014-05-31T09:25:59Z</time>
      </trkpt>
      <trkpt lat="44.29159" lon="3.30936">
        <ele>770</ele>
        <time>2014-05-31T09:26:09Z</time>
      </trkpt>
      <trkpt lat="44.29153" lon="3.30938">
        <ele>773</ele>
        <time>2014-05-31T09:26:18Z</time>
      </trkpt>
      <trkpt lat="44.29148" lon="3.30938">
        <ele>773</ele>
        <time>2014-05-31T09:26:28Z</time>
      </trkpt>
      <trkpt lat="44.29142" lon="3.30936">
        <ele>773</ele>
        <time>2014-05-31T09:26:37Z</time>
      </trkpt>
      <trkpt lat="44.29137" lon="3.30936">
        <ele>773</ele>
        <time>2014-05-31T09:26:47Z</time>
      </trkpt>
      <trkpt lat="44.29131" lon="3.30935">
        <ele>775</ele>
        <time>2014-05-31T09:26:57Z</time>
      </trkpt>
      <trkpt lat="44.29125" lon="3.30934">
        <ele>780</ele>
        <time>2014-05-31T09:27:07Z</time>
      </trkpt>
      <trkpt lat="44.29121" lon="3.30934">
        <ele>787</ele>
        <time>2014-05-31T09:27:16Z</time>
      </trkpt>
      <trkpt lat="44.29117" lon="3.30935">
        <ele>791</ele>
        <time>2014-05-31T09:27:26Z</time>
      </trkpt>
      <trkpt lat="44.29111" lon="3.30937">
        <ele>791</ele>
        <time>2014-05-31T09:27:36Z</time>
      </trkpt>
      <trkpt lat="44.29104" lon="3.30942">
        <ele>791</ele>
        <time>2014-05-31T09:27:45Z</time>
      </trkpt>
      <trkpt lat="44.29095" lon="3.30946">
        <ele>791</ele>
        <time>2014-05-31T09:27:55Z</time>
      </trkpt>
      <trkpt lat="44.29087" lon="3.30951">
        <ele>791</ele>
        <time>2014-05-31T09:28:04Z</time>
      </trkpt>
      <trkpt lat="44.29082" lon="3.30954">
        <ele>791</ele>
        <time>2014-05-31T09:28:15Z</time>
      </trkpt>
      <trkpt lat="44.29075" lon="3.30957">
        <ele>791</ele>
        <time>2014-05-31T09:28:25Z</time>
      </trkpt>
      <trkpt lat="44.29065" lon="3.30953">
        <ele>791</ele>
        <time>2014-05-31T09:28:38Z</time>
      </trkpt>
      <trkpt lat="44.29059" lon="3.30954">
        <ele>791</ele>
        <time>2014-05-31T09:28:48Z</time>
      </trkpt>
      <trkpt lat="44.29053" lon="3.30955">
        <ele>791</ele>
        <time>2014-05-31T09:28:58Z</time>
      </trkpt>
      <trkpt lat="44.29047" lon="3.30956">
        <ele>796</ele>
        <time>2014-05-31T09:29:09Z</time>
      </trkpt>
      <trkpt lat="44.29041" lon="3.30957">
        <ele>796</ele>
        <time>2014-05-31T09:29:19Z</time>
      </trkpt>
      <trkpt lat="44.29033" lon="3.30963">
        <ele>798</ele>
        <time>2014-05-31T09:29:29Z</time>
      </trkpt>
      <trkpt lat="44.29027" lon="3.30963">
        <ele>798</ele>
        <time>2014-05-31T09:29:41Z</time>
      </trkpt>
      <trkpt lat="44.29023" lon="3.30962">
        <ele>798</ele>
        <time>2014-05-31T09:29:51Z</time>
      </trkpt>
      <trkpt lat="44.29023" lon="3.3096">
        <ele>798</ele>
        <time>2014-05-31T09:30:02Z</time>
      </trkpt>
      <trkpt lat="44.29024" lon="3.30959">
        <ele>801</ele>
        <time>2014-05-31T09:30:15Z</time>
      </trkpt>
      <trkpt lat="44.2902" lon="3.3096">
        <ele>806</ele>
        <time>2014-05-31T09:30:25Z</time>
      </trkpt>
      <trkpt lat="44.29027" lon="3.30952">
        <ele>806</ele>
        <time>2014-05-31T09:30:36Z</time>
      </trkpt>
      <trkpt lat="44.29033" lon="3.30945">
        <ele>806</ele>
        <time>2014-05-31T09:30:45Z</time>
      </trkpt>
      <trkpt lat="44.29041" lon="3.30943">
        <ele>807</ele>
        <time>2014-05-31T09:30:54Z</time>
      </trkpt>
      <trkpt lat="44.29036" lon="3.3094">
        <ele>808</ele>
        <time>2014-05-31T09:31:04Z</time>
      </trkpt>
      <trkpt lat="44.29028" lon="3.30941">
        <ele>808</ele>
        <time>2014-05-31T09:31:14Z</time>
      </trkpt>
      <trkpt lat="44.2902" lon="3.30941">
        <ele>809</ele>
        <time>2014-05-31T09:31:24Z</time>
      </trkpt>
      <trkpt lat="44.29015" lon="3.3094">
        <ele>809</ele>
        <time>2014-05-31T09:31:33Z</time>
      </trkpt>
      <trkpt lat="44.2901" lon="3.30936">
        <ele>810</ele>
        <time>2014-05-31T09:31:42Z</time>
      </trkpt>
      <trkpt lat="44.29003" lon="3.3093">
        <ele>810</ele>
        <time>2014-05-31T09:31:54Z</time>
      </trkpt>
      <trkpt lat="44.28996" lon="3.30922">
        <ele>810</ele>
        <time>2014-05-31T09:32:04Z</time>
      </trkpt>
      <trkpt lat="44.2899" lon="3.30918">
        <ele>810</ele>
        <time>2014-05-31T09:32:14Z</time>
      </trkpt>
      <trkpt lat="44.28987" lon="3.30911">
        <ele>810</ele>
        <time>2014-05-31T09:32:24Z</time>
      </trkpt>
      <trkpt lat="44.28988" lon="3.30909">
        <ele>817</ele>
        <time>2014-05-31T09:32:35Z</time>
      </trkpt>
      <trkpt lat="44.28987" lon="3.30903">
        <ele>818</ele>
        <time>2014-05-31T09:32:45Z</time>
      </trkpt>
      <trkpt lat="44.28984" lon="3.30895">
        <ele>822</ele>
        <time>2014-05-31T09:32:56Z</time>
      </trkpt>
      <trkpt lat="44.28981" lon="3.30887">
        <ele>825</ele>
        <time>2014-05-31T09:33:07Z</time>
      </trkpt>
      <trkpt lat="44.28978" lon="3.3088">
        <ele>827</ele>
        <time>2014-05-31T09:33:17Z</time>
      </trkpt>
      <trkpt lat="44.28982" lon="3.30875">
        <ele>829</ele>
        <time>2014-05-31T09:33:27Z</time>
      </trkpt>
      <trkpt lat="44.28992" lon="3.30878">
        <ele>830</ele>
        <time>2014-05-31T09:33:38Z</time>
      </trkpt>
      <trkpt lat="44.28999" lon="3.30882">
        <ele>830</ele>
        <time>2014-05-31T09:33:49Z</time>
      </trkpt>
      <trkpt lat="44.29004" lon="3.30877">
        <ele>830</ele>
        <time>2014-05-31T09:33:59Z</time>
      </trkpt>
      <trkpt lat="44.28999" lon="3.30872">
        <ele>830</ele>
        <time>2014-05-31T09:34:08Z</time>
      </trkpt>
      <trkpt lat="44.28996" lon="3.30862">
        <ele>831</ele>
        <time>2014-05-31T09:34:18Z</time>
      </trkpt>
      <trkpt lat="44.29" lon="3.30859">
        <ele>832</ele>
        <time>2014-05-31T09:34:27Z</time>
      </trkpt>
      <trkpt lat="44.29007" lon="3.30857">
        <ele>834</ele>
        <time>2014-05-31T09:34:36Z</time>
      </trkpt>
      <trkpt lat="44.29015" lon="3.30858">
        <ele>834</ele>
        <time>2014-05-31T09:34:46Z</time>
      </trkpt>
      <trkpt lat="44.2902" lon="3.3085">
        <ele>836</ele>
        <time>2014-05-31T09:34:57Z</time>
      </trkpt>
      <trkpt lat="44.29019" lon="3.30842">
        <ele>837</ele>
        <time>2014-05-31T09:35:08Z</time>
      </trkpt>
      <trkpt lat="44.29017" lon="3.30832">
        <ele>838</ele>
        <time>2014-05-31T09:35:18Z</time>
      </trkpt>
      <trkpt lat="44.29012" lon="3.30819">
        <ele>839</ele>
        <time>2014-05-31T09:35:29Z</time>
      </trkpt>
      <trkpt lat="44.29006" lon="3.30809">
        <ele>840</ele>
        <time>2014-05-31T09:35:40Z</time>
      </trkpt>
      <trkpt lat="44.29" lon="3.30801">
        <ele>840</ele>
        <time>2014-05-31T09:35:50Z</time>
      </trkpt>
      <trkpt lat="44.28995" lon="3.30792">
        <ele>840</ele>
        <time>2014-05-31T09:35:59Z</time>
      </trkpt>
      <trkpt lat="44.28991" lon="3.30783">
        <ele>840</ele>
        <time>2014-05-31T09:36:08Z</time>
      </trkpt>
      <trkpt lat="44.28986" lon="3.30772">
        <ele>840</ele>
        <time>2014-05-31T09:36:20Z</time>
      </trkpt>
      <trkpt lat="44.2898" lon="3.30763">
        <ele>843</ele>
        <time>2014-05-31T09:36:29Z</time>
      </trkpt>
      <trkpt lat="44.28976" lon="3.30755">
        <ele>843</ele>
        <time>2014-05-31T09:36:39Z</time>
      </trkpt>
      <trkpt lat="44.28971" lon="3.30746">
        <ele>844</ele>
        <time>2014-05-31T09:36:49Z</time>
      </trkpt>
      <trkpt lat="44.28965" lon="3.30738">
        <ele>845</ele>
        <time>2014-05-31T09:36:59Z</time>
      </trkpt>
      <trkpt lat="44.28962" lon="3.30728">
        <ele>847</ele>
        <time>2014-05-31T09:37:08Z</time>
      </trkpt>
      <trkpt lat="44.28958" lon="3.30716">
        <ele>849</ele>
        <time>2014-05-31T09:37:18Z</time>
      </trkpt>
      <trkpt lat="44.28954" lon="3.30707">
        <ele>850</ele>
        <time>2014-05-31T09:37:28Z</time>
      </trkpt>
      <trkpt lat="44.28951" lon="3.30696">
        <ele>851</ele>
        <time>2014-05-31T09:37:38Z</time>
      </trkpt>
      <trkpt lat="44.28947" lon="3.30686">
        <ele>853</ele>
        <time>2014-05-31T09:37:48Z</time>
      </trkpt>
      <trkpt lat="44.28944" lon="3.30675">
        <ele>854</ele>
        <time>2014-05-31T09:37:58Z</time>
      </trkpt>
      <trkpt lat="44.28939" lon="3.30665">
        <ele>856</ele>
        <time>2014-05-31T09:38:08Z</time>
      </trkpt>
      <trkpt lat="44.28938" lon="3.30654">
        <ele>856</ele>
        <time>2014-05-31T09:38:18Z</time>
      </trkpt>
      <trkpt lat="44.28936" lon="3.30643">
        <ele>856</ele>
        <time>2014-05-31T09:38:28Z</time>
      </trkpt>
      <trkpt lat="44.28934" lon="3.30632">
        <ele>858</ele>
        <time>2014-05-31T09:38:38Z</time>
      </trkpt>
      <trkpt lat="44.2893" lon="3.30622">
        <ele>860</ele>
        <time>2014-05-31T09:38:48Z</time>
      </trkpt>
      <trkpt lat="44.28927" lon="3.3061">
        <ele>861</ele>
        <time>2014-05-31T09:38:57Z</time>
      </trkpt>
      <trkpt lat="44.2892" lon="3.30599">
        <ele>861</ele>
        <time>2014-05-31T09:39:08Z</time>
      </trkpt>
      <trkpt lat="44.28913" lon="3.30594">
        <ele>861</ele>
        <time>2014-05-31T09:39:18Z</time>
      </trkpt>
      <trkpt lat="44.28904" lon="3.30587">
        <ele>860</ele>
        <time>2014-05-31T09:39:28Z</time>
      </trkpt>
      <trkpt lat="44.28897" lon="3.30576">
        <ele>859</ele>
        <time>2014-05-31T09:39:37Z</time>
      </trkpt>
      <trkpt lat="44.2889" lon="3.30568">
        <ele>859</ele>
        <time>2014-05-31T09:39:47Z</time>
      </trkpt>
      <trkpt lat="44.28883" lon="3.30558">
        <ele>859</ele>
        <time>2014-05-31T09:39:57Z</time>
      </trkpt>
      <trkpt lat="44.28877" lon="3.30547">
        <ele>861</ele>
        <time>2014-05-31T09:40:07Z</time>
      </trkpt>
      <trkpt lat="44.2887" lon="3.30538">
        <ele>864</ele>
        <time>2014-05-31T09:40:17Z</time>
      </trkpt>
      <trkpt lat="44.28864" lon="3.30529">
        <ele>866</ele>
        <time>2014-05-31T09:40:27Z</time>
      </trkpt>
      <trkpt lat="44.28859" lon="3.30517">
        <ele>869</ele>
        <time>2014-05-31T09:40:37Z</time>
      </trkpt>
      <trkpt lat="44.28854" lon="3.30505">
        <ele>869</ele>
        <time>2014-05-31T09:40:46Z</time>
      </trkpt>
      <trkpt lat="44.28856" lon="3.30494">
        <ele>869</ele>
        <time>2014-05-31T09:40:56Z</time>
      </trkpt>
      <trkpt lat="44.28847" lon="3.30482">
        <ele>871</ele>
        <time>2014-05-31T09:41:05Z</time>
      </trkpt>
      <trkpt lat="44.28841" lon="3.30473">
        <ele>871</ele>
        <time>2014-05-31T09:41:14Z</time>
      </trkpt>
      <trkpt lat="44.28835" lon="3.30463">
        <ele>872</ele>
        <time>2014-05-31T09:41:23Z</time>
      </trkpt>
      <trkpt lat="44.2883" lon="3.30454">
        <ele>872</ele>
        <time>2014-05-31T09:41:33Z</time>
      </trkpt>
      <trkpt lat="44.28825" lon="3.30443">
        <ele>873</ele>
        <time>2014-05-31T09:41:43Z</time>
      </trkpt>
      <trkpt lat="44.2882" lon="3.30431">
        <ele>875</ele>
        <time>2014-05-31T09:41:53Z</time>
      </trkpt>
      <trkpt lat="44.28814" lon="3.30421">
        <ele>877</ele>
        <time>2014-05-31T09:42:03Z</time>
      </trkpt>
      <trkpt lat="44.28808" lon="3.30411">
        <ele>877</ele>
        <time>2014-05-31T09:42:13Z</time>
      </trkpt>
      <trkpt lat="44.28803" lon="3.30402">
        <ele>877</ele>
        <time>2014-05-31T09:42:23Z</time>
      </trkpt>
      <trkpt lat="44.28797" lon="3.30389">
        <ele>877</ele>
        <time>2014-05-31T09:42:33Z</time>
      </trkpt>
      <trkpt lat="44.28791" lon="3.30377">
        <ele>877</ele>
        <time>2014-05-31T09:42:42Z</time>
      </trkpt>
      <trkpt lat="44.28786" lon="3.30364">
        <ele>877</ele>
        <time>2014-05-31T09:42:51Z</time>
      </trkpt>
      <trkpt lat="44.28781" lon="3.30351">
        <ele>877</ele>
        <time>2014-05-31T09:43:01Z</time>
      </trkpt>
      <trkpt lat="44.28774" lon="3.30339">
        <ele>879</ele>
        <time>2014-05-31T09:43:11Z</time>
      </trkpt>
      <trkpt lat="44.28769" lon="3.30328">
        <ele>879</ele>
        <time>2014-05-31T09:43:20Z</time>
      </trkpt>
      <trkpt lat="44.2876" lon="3.30314">
        <ele>879</ele>
        <time>2014-05-31T09:43:30Z</time>
      </trkpt>
      <trkpt lat="44.28753" lon="3.30302">
        <ele>881</ele>
        <time>2014-05-31T09:43:39Z</time>
      </trkpt>
      <trkpt lat="44.28748" lon="3.30289">
        <ele>883</ele>
        <time>2014-05-31T09:43:49Z</time>
      </trkpt>
      <trkpt lat="44.28743" lon="3.30277">
        <ele>884</ele>
        <time>2014-05-31T09:43:59Z</time>
      </trkpt>
      <trkpt lat="44.28743" lon="3.30268">
        <ele>888</ele>
        <time>2014-05-31T09:44:09Z</time>
      </trkpt>
      <trkpt lat="44.28743" lon="3.30259">
        <ele>891</ele>
        <time>2014-05-31T09:44:19Z</time>
      </trkpt>
      <trkpt lat="44.28743" lon="3.3025">
        <ele>894</ele>
        <time>2014-05-31T09:44:30Z</time>
      </trkpt>
      <trkpt lat="44.2874" lon="3.30248">
        <ele>895</ele>
        <time>2014-05-31T09:44:45Z</time>
      </trkpt>
      <trkpt lat="44.28739" lon="3.30242">
        <ele>896</ele>
        <time>2014-05-31T09:44:55Z</time>
      </trkpt>
      <trkpt lat="44.28736" lon="3.30232">
        <ele>896</ele>
        <time>2014-05-31T09:45:05Z</time>
      </trkpt>
      <trkpt lat="44.28734" lon="3.30222">
        <ele>898</ele>
        <time>2014-05-31T09:45:15Z</time>
      </trkpt>
      <trkpt lat="44.28731" lon="3.30209">
        <ele>900</ele>
        <time>2014-05-31T09:45:25Z</time>
      </trkpt>
      <trkpt lat="44.2873" lon="3.30197">
        <ele>901</ele>
        <time>2014-05-31T09:45:35Z</time>
      </trkpt>
      <trkpt lat="44.28731" lon="3.30184">
        <ele>901</ele>
        <time>2014-05-31T09:45:45Z</time>
      </trkpt>
      <trkpt lat="44.28731" lon="3.30171">
        <ele>901</ele>
        <time>2014-05-31T09:45:54Z</time>
      </trkpt>
      <trkpt lat="44.28733" lon="3.3016">
        <ele>901</ele>
        <time>2014-05-31T09:46:03Z</time>
      </trkpt>
      <trkpt lat="44.28734" lon="3.30144">
        <ele>901</ele>
        <time>2014-05-31T09:46:13Z</time>
      </trkpt>
      <trkpt lat="44.28735" lon="3.30134">
        <ele>901</ele>
        <time>2014-05-31T09:46:22Z</time>
      </trkpt>
      <trkpt lat="44.28735" lon="3.30121">
        <ele>901</ele>
        <time>2014-05-31T09:46:32Z</time>
      </trkpt>
      <trkpt lat="44.28736" lon="3.3011">
        <ele>902</ele>
        <time>2014-05-31T09:46:41Z</time>
      </trkpt>
      <trkpt lat="44.28733" lon="3.30097">
        <ele>903</ele>
        <time>2014-05-31T09:46:50Z</time>
      </trkpt>
      <trkpt lat="44.28731" lon="3.30082">
        <ele>903</ele>
        <time>2014-05-31T09:47:00Z</time>
      </trkpt>
      <trkpt lat="44.28728" lon="3.30078">
        <ele>903</ele>
        <time>2014-05-31T09:47:15Z</time>
      </trkpt>
      <trkpt lat="44.28738" lon="3.30072">
        <ele>904</ele>
        <time>2014-05-31T09:47:24Z</time>
      </trkpt>
      <trkpt lat="44.28741" lon="3.30071">
        <ele>905</ele>
        <time>2014-05-31T09:47:42Z</time>
      </trkpt>
      <trkpt lat="44.28747" lon="3.30064">
        <ele>905</ele>
        <time>2014-05-31T09:47:51Z</time>
      </trkpt>
      <trkpt lat="44.28754" lon="3.30056">
        <ele>905</ele>
        <time>2014-05-31T09:48:01Z</time>
      </trkpt>
      <trkpt lat="44.28756" lon="3.30042">
        <ele>908</ele>
        <time>2014-05-31T09:48:11Z</time>
      </trkpt>
      <trkpt lat="44.28752" lon="3.30038">
        <ele>908</ele>
        <time>2014-05-31T09:48:26Z</time>
      </trkpt>
      <trkpt lat="44.28745" lon="3.30033">
        <ele>908</ele>
        <time>2014-05-31T09:48:35Z</time>
      </trkpt>
      <trkpt lat="44.28735" lon="3.30027">
        <ele>908</ele>
        <time>2014-05-31T09:48:44Z</time>
      </trkpt>
      <trkpt lat="44.28728" lon="3.30019">
        <ele>908</ele>
        <time>2014-05-31T09:48:53Z</time>
      </trkpt>
      <trkpt lat="44.28722" lon="3.30014">
        <ele>908</ele>
        <time>2014-05-31T09:49:06Z</time>
      </trkpt>
      <trkpt lat="44.28718" lon="3.30004">
        <ele>908</ele>
        <time>2014-05-31T09:49:16Z</time>
      </trkpt>
      <trkpt lat="44.28716" lon="3.30004">
        <ele>908</ele>
        <time>2014-05-31T09:49:28Z</time>
      </trkpt>
      <trkpt lat="44.28714" lon="3.30002">
        <ele>908</ele>
        <time>2014-05-31T09:49:39Z</time>
      </trkpt>
      <trkpt lat="44.28716" lon="3.29997">
        <ele>908</ele>
        <time>2014-05-31T09:49:59Z</time>
      </trkpt>
      <trkpt lat="44.28714" lon="3.29988">
        <ele>908</ele>
        <time>2014-05-31T09:50:08Z</time>
      </trkpt>
      <trkpt lat="44.28712" lon="3.29977">
        <ele>908</ele>
        <time>2014-05-31T09:50:17Z</time>
      </trkpt>
      <trkpt lat="44.28713" lon="3.29965">
        <ele>908</ele>
        <time>2014-05-31T09:50:27Z</time>
      </trkpt>
      <trkpt lat="44.28715" lon="3.29955">
        <ele>909</ele>
        <time>2014-05-31T09:50:36Z</time>
      </trkpt>
      <trkpt lat="44.28719" lon="3.29942">
        <ele>909</ele>
        <time>2014-05-31T09:50:46Z</time>
      </trkpt>
      <trkpt lat="44.28723" lon="3.29926">
        <ele>909</ele>
        <time>2014-05-31T09:50:57Z</time>
      </trkpt>
      <trkpt lat="44.28726" lon="3.29914">
        <ele>909</ele>
        <time>2014-05-31T09:51:06Z</time>
      </trkpt>
      <trkpt lat="44.28727" lon="3.29901">
        <ele>909</ele>
        <time>2014-05-31T09:51:16Z</time>
      </trkpt>
      <trkpt lat="44.28728" lon="3.29893">
        <ele>909</ele>
        <time>2014-05-31T09:51:27Z</time>
      </trkpt>
      <trkpt lat="44.28736" lon="3.29885">
        <ele>909</ele>
        <time>2014-05-31T09:51:37Z</time>
      </trkpt>
      <trkpt lat="44.2874" lon="3.29885">
        <ele>909</ele>
        <time>2014-05-31T09:51:46Z</time>
      </trkpt>
      <trkpt lat="44.28749" lon="3.29891">
        <ele>912</ele>
        <time>2014-05-31T09:51:56Z</time>
      </trkpt>
      <trkpt lat="44.28756" lon="3.29903">
        <ele>912</ele>
        <time>2014-05-31T09:52:05Z</time>
      </trkpt>
      <trkpt lat="44.28761" lon="3.29916">
        <ele>913</ele>
        <time>2014-05-31T09:52:14Z</time>
      </trkpt>
      <trkpt lat="44.28767" lon="3.29927">
        <ele>913</ele>
        <time>2014-05-31T09:52:23Z</time>
      </trkpt>
      <trkpt lat="44.28774" lon="3.29937">
        <ele>914</ele>
        <time>2014-05-31T09:52:32Z</time>
      </trkpt>
      <trkpt lat="44.28782" lon="3.29947">
        <ele>916</ele>
        <time>2014-05-31T09:52:42Z</time>
      </trkpt>
      <trkpt lat="44.28791" lon="3.29958">
        <ele>916</ele>
        <time>2014-05-31T09:52:51Z</time>
      </trkpt>
      <trkpt lat="44.28801" lon="3.29969">
        <ele>916</ele>
        <time>2014-05-31T09:53:00Z</time>
      </trkpt>
      <trkpt lat="44.28812" lon="3.29978">
        <ele>916</ele>
        <time>2014-05-31T09:53:09Z</time>
      </trkpt>
      <trkpt lat="44.28821" lon="3.29988">
        <ele>916</ele>
        <time>2014-05-31T09:53:18Z</time>
      </trkpt>
      <trkpt lat="44.2883" lon="3.29999">
        <ele>916</ele>
        <time>2014-05-31T09:53:28Z</time>
      </trkpt>
      <trkpt lat="44.28836" lon="3.30013">
        <ele>916</ele>
        <time>2014-05-31T09:53:37Z</time>
      </trkpt>
      <trkpt lat="44.2884" lon="3.30028">
        <ele>916</ele>
        <time>2014-05-31T09:53:46Z</time>
      </trkpt>
      <trkpt lat="44.28847" lon="3.30039">
        <ele>916</ele>
        <time>2014-05-31T09:53:55Z</time>
      </trkpt>
      <trkpt lat="44.28851" lon="3.30043">
        <ele>916</ele>
        <time>2014-05-31T09:54:07Z</time>
      </trkpt>
      <trkpt lat="44.28858" lon="3.30055">
        <ele>916</ele>
        <time>2014-05-31T09:54:16Z</time>
      </trkpt>
      <trkpt lat="44.28866" lon="3.30067">
        <ele>916</ele>
        <time>2014-05-31T09:54:25Z</time>
      </trkpt>
      <trkpt lat="44.28875" lon="3.3008">
        <ele>916</ele>
        <time>2014-05-31T09:54:34Z</time>
      </trkpt>
      <trkpt lat="44.28884" lon="3.30093">
        <ele>916</ele>
        <time>2014-05-31T09:54:44Z</time>
      </trkpt>
      <trkpt lat="44.28891" lon="3.30105">
        <ele>916</ele>
        <time>2014-05-31T09:54:53Z</time>
      </trkpt>
      <trkpt lat="44.28897" lon="3.30119">
        <ele>916</ele>
        <time>2014-05-31T09:55:03Z</time>
      </trkpt>
      <trkpt lat="44.28902" lon="3.30125">
        <ele>917</ele>
        <time>2014-05-31T09:55:22Z</time>
      </trkpt>
      <trkpt lat="44.28907" lon="3.30116">
        <ele>917</ele>
        <time>2014-05-31T09:55:31Z</time>
      </trkpt>
      <trkpt lat="44.28917" lon="3.30113">
        <ele>917</ele>
        <time>2014-05-31T09:55:40Z</time>
      </trkpt>
      <trkpt lat="44.28928" lon="3.3011">
        <ele>917</ele>
        <time>2014-05-31T09:55:49Z</time>
      </trkpt>
      <trkpt lat="44.28937" lon="3.30118">
        <ele>917</ele>
        <time>2014-05-31T09:55:59Z</time>
      </trkpt>
      <trkpt lat="44.2894" lon="3.30132">
        <ele>916</ele>
        <time>2014-05-31T09:56:09Z</time>
      </trkpt>
      <trkpt lat="44.28945" lon="3.30145">
        <ele>915</ele>
        <time>2014-05-31T09:56:18Z</time>
      </trkpt>
      <trkpt lat="44.28955" lon="3.30158">
        <ele>915</ele>
        <time>2014-05-31T09:56:28Z</time>
      </trkpt>
      <trkpt lat="44.28959" lon="3.30171">
        <ele>915</ele>
        <time>2014-05-31T09:56:37Z</time>
      </trkpt>
      <trkpt lat="44.28963" lon="3.30188">
        <ele>915</ele>
        <time>2014-05-31T09:56:47Z</time>
      </trkpt>
      <trkpt lat="44.28971" lon="3.302">
        <ele>915</ele>
        <time>2014-05-31T09:56:56Z</time>
      </trkpt>
      <trkpt lat="44.28979" lon="3.30215">
        <ele>915</ele>
        <time>2014-05-31T09:57:05Z</time>
      </trkpt>
      <trkpt lat="44.28988" lon="3.30225">
        <ele>915</ele>
        <time>2014-05-31T09:57:15Z</time>
      </trkpt>
      <trkpt lat="44.28997" lon="3.30238">
        <ele>915</ele>
        <time>2014-05-31T09:57:24Z</time>
      </trkpt>
      <trkpt lat="44.29005" lon="3.30247">
        <ele>915</ele>
        <time>2014-05-31T09:57:33Z</time>
      </trkpt>
      <trkpt lat="44.29014" lon="3.30257">
        <ele>915</ele>
        <time>2014-05-31T09:57:42Z</time>
      </trkpt>
      <trkpt lat="44.29023" lon="3.30269">
        <ele>915</ele>
        <time>2014-05-31T09:57:51Z</time>
      </trkpt>
      <trkpt lat="44.29033" lon="3.3028">
        <ele>915</ele>
        <time>2014-05-31T09:58:00Z</time>
      </trkpt>
      <trkpt lat="44.29038" lon="3.30295">
        <ele>915</ele>
        <time>2014-05-31T09:58:09Z</time>
      </trkpt>
      <trkpt lat="44.29045" lon="3.30309">
        <ele>915</ele>
        <time>2014-05-31T09:58:18Z</time>
      </trkpt>
      <trkpt lat="44.29052" lon="3.30322">
        <ele>915</ele>
        <time>2014-05-31T09:58:27Z</time>
      </trkpt>
      <trkpt lat="44.29062" lon="3.30335">
        <ele>915</ele>
        <time>2014-05-31T09:58:37Z</time>
      </trkpt>
      <trkpt lat="44.29073" lon="3.30348">
        <ele>915</ele>
        <time>2014-05-31T09:58:47Z</time>
      </trkpt>
      <trkpt lat="44.29081" lon="3.30357">
        <ele>915</ele>
        <time>2014-05-31T09:58:56Z</time>
      </trkpt>
      <trkpt lat="44.29087" lon="3.30369">
        <ele>915</ele>
        <time>2014-05-31T09:59:05Z</time>
      </trkpt>
      <trkpt lat="44.29094" lon="3.30382">
        <ele>915</ele>
        <time>2014-05-31T09:59:14Z</time>
      </trkpt>
      <trkpt lat="44.29103" lon="3.30395">
        <ele>915</ele>
        <time>2014-05-31T09:59:23Z</time>
      </trkpt>
      <trkpt lat="44.29114" lon="3.304">
        <ele>915</ele>
        <time>2014-05-31T09:59:32Z</time>
      </trkpt>
      <trkpt lat="44.29126" lon="3.30403">
        <ele>915</ele>
        <time>2014-05-31T09:59:41Z</time>
      </trkpt>
      <trkpt lat="44.29139" lon="3.30407">
        <ele>916</ele>
        <time>2014-05-31T09:59:51Z</time>
      </trkpt>
      <trkpt lat="44.2915" lon="3.30416">
        <ele>916</ele>
        <time>2014-05-31T10:00:01Z</time>
      </trkpt>
      <trkpt lat="44.29161" lon="3.30423">
        <ele>916</ele>
        <time>2014-05-31T10:00:10Z</time>
      </trkpt>
      <trkpt lat="44.29171" lon="3.30431">
        <ele>916</ele>
        <time>2014-05-31T10:00:19Z</time>
      </trkpt>
      <trkpt lat="44.29181" lon="3.30437">
        <ele>916</ele>
        <time>2014-05-31T10:00:28Z</time>
      </trkpt>
      <trkpt lat="44.29192" lon="3.30445">
        <ele>916</ele>
        <time>2014-05-31T10:00:38Z</time>
      </trkpt>
      <trkpt lat="44.29204" lon="3.3045">
        <ele>916</ele>
        <time>2014-05-31T10:00:47Z</time>
      </trkpt>
      <trkpt lat="44.29216" lon="3.30452">
        <ele>916</ele>
        <time>2014-05-31T10:00:56Z</time>
      </trkpt>
      <trkpt lat="44.29228" lon="3.30452">
        <ele>916</ele>
        <time>2014-05-31T10:01:05Z</time>
      </trkpt>
      <trkpt lat="44.29242" lon="3.30455">
        <ele>916</ele>
        <time>2014-05-31T10:01:14Z</time>
      </trkpt>
      <trkpt lat="44.29251" lon="3.30458">
        <ele>916</ele>
        <time>2014-05-31T10:01:24Z</time>
      </trkpt>
      <trkpt lat="44.29262" lon="3.30461">
        <ele>916</ele>
        <time>2014-05-31T10:01:33Z</time>
      </trkpt>
      <trkpt lat="44.29272" lon="3.30469">
        <ele>916</ele>
        <time>2014-05-31T10:01:42Z</time>
      </trkpt>
      <trkpt lat="44.29286" lon="3.30468">
        <ele>916</ele>
        <time>2014-05-31T10:01:51Z</time>
      </trkpt>
      <trkpt lat="44.29298" lon="3.30467">
        <ele>916</ele>
        <time>2014-05-31T10:02:00Z</time>
      </trkpt>
      <trkpt lat="44.2931" lon="3.30465">
        <ele>916</ele>
        <time>2014-05-31T10:02:09Z</time>
      </trkpt>
      <trkpt lat="44.29324" lon="3.30465">
        <ele>916</ele>
        <time>2014-05-31T10:02:19Z</time>
      </trkpt>
      <trkpt lat="44.29335" lon="3.30464">
        <ele>915</ele>
        <time>2014-05-31T10:02:28Z</time>
      </trkpt>
      <trkpt lat="44.29346" lon="3.30466">
        <ele>915</ele>
        <time>2014-05-31T10:02:37Z</time>
      </trkpt>
      <trkpt lat="44.29359" lon="3.30473">
        <ele>915</ele>
        <time>2014-05-31T10:02:47Z</time>
      </trkpt>
      <trkpt lat="44.29372" lon="3.30475">
        <ele>915</ele>
        <time>2014-05-31T10:02:56Z</time>
      </trkpt>
      <trkpt lat="44.29386" lon="3.30477">
        <ele>915</ele>
        <time>2014-05-31T10:03:05Z</time>
      </trkpt>
      <trkpt lat="44.29395" lon="3.30475">
        <ele>915</ele>
        <time>2014-05-31T10:03:14Z</time>
      </trkpt>
      <trkpt lat="44.29405" lon="3.30474">
        <ele>915</ele>
        <time>2014-05-31T10:03:23Z</time>
      </trkpt>
      <trkpt lat="44.29419" lon="3.30476">
        <ele>915</ele>
        <time>2014-05-31T10:03:32Z</time>
      </trkpt>
      <trkpt lat="44.2943" lon="3.30477">
        <ele>915</ele>
        <time>2014-05-31T10:03:41Z</time>
      </trkpt>
      <trkpt lat="44.29441" lon="3.3047">
        <ele>915</ele>
        <time>2014-05-31T10:03:50Z</time>
      </trkpt>
      <trkpt lat="44.29452" lon="3.30467">
        <ele>914</ele>
        <time>2014-05-31T10:03:59Z</time>
      </trkpt>
      <trkpt lat="44.29465" lon="3.30468">
        <ele>913</ele>
        <time>2014-05-31T10:04:08Z</time>
      </trkpt>
      <trkpt lat="44.29476" lon="3.3047">
        <ele>913</ele>
        <time>2014-05-31T10:04:17Z</time>
      </trkpt>
      <trkpt lat="44.29489" lon="3.30471">
        <ele>913</ele>
        <time>2014-05-31T10:04:26Z</time>
      </trkpt>
      <trkpt lat="44.29503" lon="3.30469">
        <ele>913</ele>
        <time>2014-05-31T10:04:35Z</time>
      </trkpt>
      <trkpt lat="44.29515" lon="3.30465">
        <ele>913</ele>
        <time>2014-05-31T10:04:45Z</time>
      </trkpt>
      <trkpt lat="44.29527" lon="3.30465">
        <ele>913</ele>
        <time>2014-05-31T10:04:54Z</time>
      </trkpt>
      <trkpt lat="44.29537" lon="3.3047">
        <ele>913</ele>
        <time>2014-05-31T10:05:03Z</time>
      </trkpt>
      <trkpt lat="44.29546" lon="3.3048">
        <ele>913</ele>
        <time>2014-05-31T10:05:12Z</time>
      </trkpt>
      <trkpt lat="44.29556" lon="3.30489">
        <ele>912</ele>
        <time>2014-05-31T10:05:22Z</time>
      </trkpt>
      <trkpt lat="44.29564" lon="3.30497">
        <ele>910</ele>
        <time>2014-05-31T10:05:32Z</time>
      </trkpt>
      <trkpt lat="44.2957" lon="3.30509">
        <ele>910</ele>
        <time>2014-05-31T10:05:41Z</time>
      </trkpt>
      <trkpt lat="44.29571" lon="3.30522">
        <ele>910</ele>
        <time>2014-05-31T10:05:50Z</time>
      </trkpt>
      <trkpt lat="44.29577" lon="3.3053">
        <ele>910</ele>
        <time>2014-05-31T10:05:59Z</time>
      </trkpt>
      <trkpt lat="44.29585" lon="3.30535">
        <ele>909</ele>
        <time>2014-05-31T10:06:09Z</time>
      </trkpt>
      <trkpt lat="44.29586" lon="3.3054">
        <ele>908</ele>
        <time>2014-05-31T10:06:19Z</time>
      </trkpt>
      <trkpt lat="44.29585" lon="3.3054">
        <ele>908</ele>
        <time>2014-05-31T10:06:50Z</time>
      </trkpt>
      <trkpt lat="44.29582" lon="3.30546">
        <ele>906</ele>
        <time>2014-05-31T10:07:14Z</time>
      </trkpt>
      <trkpt lat="44.29585" lon="3.30544">
        <ele>908</ele>
        <time>2014-05-31T10:07:36Z</time>
      </trkpt>
      <trkpt lat="44.29586" lon="3.3054">
        <ele>908</ele>
        <time>2014-05-31T10:07:55Z</time>
      </trkpt>
      <trkpt lat="44.29583" lon="3.30534">
        <ele>908</ele>
        <time>2014-05-31T10:08:06Z</time>
      </trkpt>
      <trkpt lat="44.29578" lon="3.30524">
        <ele>908</ele>
        <time>2014-05-31T10:08:15Z</time>
      </trkpt>
      <trkpt lat="44.29576" lon="3.30512">
        <ele>908</ele>
        <time>2014-05-31T10:08:25Z</time>
      </trkpt>
      <trkpt lat="44.29572" lon="3.305">
        <ele>910</ele>
        <time>2014-05-31T10:08:35Z</time>
      </trkpt>
      <trkpt lat="44.29564" lon="3.30491">
        <ele>910</ele>
        <time>2014-05-31T10:08:44Z</time>
      </trkpt>
      <trkpt lat="44.29554" lon="3.30484">
        <ele>910</ele>
        <time>2014-05-31T10:08:54Z</time>
      </trkpt>
      <trkpt lat="44.29546" lon="3.30475">
        <ele>910</ele>
        <time>2014-05-31T10:09:03Z</time>
      </trkpt>
      <trkpt lat="44.2954" lon="3.30466">
        <ele>910</ele>
        <time>2014-05-31T10:09:12Z</time>
      </trkpt>
      <trkpt lat="44.2953" lon="3.30463">
        <ele>910</ele>
        <time>2014-05-31T10:09:21Z</time>
      </trkpt>
      <trkpt lat="44.29518" lon="3.30464">
        <ele>911</ele>
        <time>2014-05-31T10:09:31Z</time>
      </trkpt>
      <trkpt lat="44.29506" lon="3.30463">
        <ele>911</ele>
        <time>2014-05-31T10:09:40Z</time>
      </trkpt>
      <trkpt lat="44.29495" lon="3.30467">
        <ele>911</ele>
        <time>2014-05-31T10:09:49Z</time>
      </trkpt>
      <trkpt lat="44.29483" lon="3.30465">
        <ele>911</ele>
        <time>2014-05-31T10:09:58Z</time>
      </trkpt>
      <trkpt lat="44.29471" lon="3.30464">
        <ele>911</ele>
        <time>2014-05-31T10:10:07Z</time>
      </trkpt>
      <trkpt lat="44.29461" lon="3.30461">
        <ele>911</ele>
        <time>2014-05-31T10:10:16Z</time>
      </trkpt>
      <trkpt lat="44.29447" lon="3.30463">
        <ele>911</ele>
        <time>2014-05-31T10:10:26Z</time>
      </trkpt>
      <trkpt lat="44.29435" lon="3.30467">
        <ele>911</ele>
        <time>2014-05-31T10:10:35Z</time>
      </trkpt>
      <trkpt lat="44.29424" lon="3.3047">
        <ele>911</ele>
        <time>2014-05-31T10:10:44Z</time>
      </trkpt>
      <trkpt lat="44.29411" lon="3.30467">
        <ele>911</ele>
        <time>2014-05-31T10:10:53Z</time>
      </trkpt>
      <trkpt lat="44.29399" lon="3.30468">
        <ele>911</ele>
        <time>2014-05-31T10:11:02Z</time>
      </trkpt>
      <trkpt lat="44.29391" lon="3.3047">
        <ele>911</ele>
        <time>2014-05-31T10:11:15Z</time>
      </trkpt>
      <trkpt lat="44.29379" lon="3.30469">
        <ele>911</ele>
        <time>2014-05-31T10:11:24Z</time>
      </trkpt>
      <trkpt lat="44.29367" lon="3.30468">
        <ele>911</ele>
        <time>2014-05-31T10:11:33Z</time>
      </trkpt>
      <trkpt lat="44.29355" lon="3.30467">
        <ele>911</ele>
        <time>2014-05-31T10:11:42Z</time>
      </trkpt>
      <trkpt lat="44.29344" lon="3.30459">
        <ele>911</ele>
        <time>2014-05-31T10:11:52Z</time>
      </trkpt>
      <trkpt lat="44.29333" lon="3.30459">
        <ele>912</ele>
        <time>2014-05-31T10:12:01Z</time>
      </trkpt>
      <trkpt lat="44.2932" lon="3.30459">
        <ele>912</ele>
        <time>2014-05-31T10:12:12Z</time>
      </trkpt>
      <trkpt lat="44.29308" lon="3.30462">
        <ele>912</ele>
        <time>2014-05-31T10:12:22Z</time>
      </trkpt>
      <trkpt lat="44.29295" lon="3.30463">
        <ele>913</ele>
        <time>2014-05-31T10:12:31Z</time>
      </trkpt>
      <trkpt lat="44.29284" lon="3.30464">
        <ele>913</ele>
        <time>2014-05-31T10:12:40Z</time>
      </trkpt>
      <trkpt lat="44.2927" lon="3.30461">
        <ele>913</ele>
        <time>2014-05-31T10:12:50Z</time>
      </trkpt>
      <trkpt lat="44.29259" lon="3.30454">
        <ele>914</ele>
        <time>2014-05-31T10:13:00Z</time>
      </trkpt>
      <trkpt lat="44.29247" lon="3.30449">
        <ele>914</ele>
        <time>2014-05-31T10:13:09Z</time>
      </trkpt>
      <trkpt lat="44.29233" lon="3.30448">
        <ele>914</ele>
        <time>2014-05-31T10:13:18Z</time>
      </trkpt>
      <trkpt lat="44.29221" lon="3.30446">
        <ele>914</ele>
        <time>2014-05-31T10:13:28Z</time>
      </trkpt>
      <trkpt lat="44.29207" lon="3.30444">
        <ele>914</ele>
        <time>2014-05-31T10:13:38Z</time>
      </trkpt>
      <trkpt lat="44.29196" lon="3.30437">
        <ele>914</ele>
        <time>2014-05-31T10:13:47Z</time>
      </trkpt>
      <trkpt lat="44.29183" lon="3.30432">
        <ele>914</ele>
        <time>2014-05-31T10:13:57Z</time>
      </trkpt>
      <trkpt lat="44.29173" lon="3.30427">
        <ele>914</ele>
        <time>2014-05-31T10:14:06Z</time>
      </trkpt>
      <trkpt lat="44.29162" lon="3.30417">
        <ele>914</ele>
        <time>2014-05-31T10:14:16Z</time>
      </trkpt>
      <trkpt lat="44.2915" lon="3.30408">
        <ele>914</ele>
        <time>2014-05-31T10:14:25Z</time>
      </trkpt>
      <trkpt lat="44.29135" lon="3.30403">
        <ele>918</ele>
        <time>2014-05-31T10:14:34Z</time>
      </trkpt>
      <trkpt lat="44.29119" lon="3.30399">
        <ele>919</ele>
        <time>2014-05-31T10:14:44Z</time>
      </trkpt>
      <trkpt lat="44.29111" lon="3.30396">
        <ele>919</ele>
        <time>2014-05-31T10:14:54Z</time>
      </trkpt>
      <trkpt lat="44.29101" lon="3.30389">
        <ele>919</ele>
        <time>2014-05-31T10:15:03Z</time>
      </trkpt>
      <trkpt lat="44.29094" lon="3.30376">
        <ele>919</ele>
        <time>2014-05-31T10:15:12Z</time>
      </trkpt>
      <trkpt lat="44.29089" lon="3.30366">
        <ele>919</ele>
        <time>2014-05-31T10:15:21Z</time>
      </trkpt>
      <trkpt lat="44.2908" lon="3.30353">
        <ele>919</ele>
        <time>2014-05-31T10:15:31Z</time>
      </trkpt>
      <trkpt lat="44.29071" lon="3.30342">
        <ele>919</ele>
        <time>2014-05-31T10:15:40Z</time>
      </trkpt>
      <trkpt lat="44.2906" lon="3.30329">
        <ele>919</ele>
        <time>2014-05-31T10:15:50Z</time>
      </trkpt>
      <trkpt lat="44.29052" lon="3.30316">
        <ele>919</ele>
        <time>2014-05-31T10:15:59Z</time>
      </trkpt>
      <trkpt lat="44.29046" lon="3.30302">
        <ele>919</ele>
        <time>2014-05-31T10:16:08Z</time>
      </trkpt>
      <trkpt lat="44.29041" lon="3.30287">
        <ele>919</ele>
        <time>2014-05-31T10:16:17Z</time>
      </trkpt>
      <trkpt lat="44.29033" lon="3.30274">
        <ele>919</ele>
        <time>2014-05-31T10:16:26Z</time>
      </trkpt>
      <trkpt lat="44.29023" lon="3.30264">
        <ele>920</ele>
        <time>2014-05-31T10:16:36Z</time>
      </trkpt>
      <trkpt lat="44.29013" lon="3.30254">
        <ele>921</ele>
        <time>2014-05-31T10:16:45Z</time>
      </trkpt>
      <trkpt lat="44.29007" lon="3.30242">
        <ele>923</ele>
        <time>2014-05-31T10:16:55Z</time>
      </trkpt>
      <trkpt lat="44.28998" lon="3.30229">
        <ele>923</ele>
        <time>2014-05-31T10:17:04Z</time>
      </trkpt>
      <trkpt lat="44.2899" lon="3.30216">
        <ele>923</ele>
        <time>2014-05-31T10:17:13Z</time>
      </trkpt>
      <trkpt lat="44.28982" lon="3.30205">
        <ele>923</ele>
        <time>2014-05-31T10:17:22Z</time>
      </trkpt>
      <trkpt lat="44.2897" lon="3.30193">
        <ele>923</ele>
        <time>2014-05-31T10:17:31Z</time>
      </trkpt>
      <trkpt lat="44.28966" lon="3.30181">
        <ele>923</ele>
        <time>2014-05-31T10:17:40Z</time>
      </trkpt>
      <trkpt lat="44.28964" lon="3.30166">
        <ele>923</ele>
        <time>2014-05-31T10:17:49Z</time>
      </trkpt>
      <trkpt lat="44.28956" lon="3.30156">
        <ele>923</ele>
        <time>2014-05-31T10:17:58Z</time>
      </trkpt>
      <trkpt lat="44.28947" lon="3.30141">
        <ele>923</ele>
        <time>2014-05-31T10:18:08Z</time>
      </trkpt>
      <trkpt lat="44.28944" lon="3.30123">
        <ele>920</ele>
        <time>2014-05-31T10:18:18Z</time>
      </trkpt>
      <trkpt lat="44.2894" lon="3.30108">
        <ele>917</ele>
        <time>2014-05-31T10:18:27Z</time>
      </trkpt>
      <trkpt lat="44.28927" lon="3.30105">
        <ele>916</ele>
        <time>2014-05-31T10:18:36Z</time>
      </trkpt>
      <trkpt lat="44.28911" lon="3.30107">
        <ele>916</ele>
        <time>2014-05-31T10:18:46Z</time>
      </trkpt>
      <trkpt lat="44.28896" lon="3.30105">
        <ele>916</ele>
        <time>2014-05-31T10:18:55Z</time>
      </trkpt>
      <trkpt lat="44.28887" lon="3.30094">
        <ele>916</ele>
        <time>2014-05-31T10:19:04Z</time>
      </trkpt>
      <trkpt lat="44.2888" lon="3.30082">
        <ele>916</ele>
        <time>2014-05-31T10:19:13Z</time>
      </trkpt>
      <trkpt lat="44.28871" lon="3.30069">
        <ele>916</ele>
        <time>2014-05-31T10:19:23Z</time>
      </trkpt>
      <trkpt lat="44.28862" lon="3.30056">
        <ele>916</ele>
        <time>2014-05-31T10:19:32Z</time>
      </trkpt>
      <trkpt lat="44.28853" lon="3.30044">
        <ele>916</ele>
        <time>2014-05-31T10:19:41Z</time>
      </trkpt>
      <trkpt lat="44.28845" lon="3.30031">
        <ele>916</ele>
        <time>2014-05-31T10:19:51Z</time>
      </trkpt>
      <trkpt lat="44.2884" lon="3.30018">
        <ele>916</ele>
        <time>2014-05-31T10:20:00Z</time>
      </trkpt>
      <trkpt lat="44.28836" lon="3.30003">
        <ele>916</ele>
        <time>2014-05-31T10:20:09Z</time>
      </trkpt>
      <trkpt lat="44.28832" lon="3.29991">
        <ele>917</ele>
        <time>2014-05-31T10:20:21Z</time>
      </trkpt>
      <trkpt lat="44.28822" lon="3.29984">
        <ele>917</ele>
        <time>2014-05-31T10:20:30Z</time>
      </trkpt>
      <trkpt lat="44.28813" lon="3.29975">
        <ele>917</ele>
        <time>2014-05-31T10:20:39Z</time>
      </trkpt>
      <trkpt lat="44.28803" lon="3.29965">
        <ele>917</ele>
        <time>2014-05-31T10:20:48Z</time>
      </trkpt>
      <trkpt lat="44.28793" lon="3.29954">
        <ele>917</ele>
        <time>2014-05-31T10:20:58Z</time>
      </trkpt>
      <trkpt lat="44.28782" lon="3.29944">
        <ele>918</ele>
        <time>2014-05-31T10:21:08Z</time>
      </trkpt>
      <trkpt lat="44.28775" lon="3.29935">
        <ele>918</ele>
        <time>2014-05-31T10:21:17Z</time>
      </trkpt>
      <trkpt lat="44.28768" lon="3.29923">
        <ele>918</ele>
        <time>2014-05-31T10:21:26Z</time>
      </trkpt>
      <trkpt lat="44.28766" lon="3.29904">
        <ele>918</ele>
        <time>2014-05-31T10:21:35Z</time>
      </trkpt>
      <trkpt lat="44.28759" lon="3.29891">
        <ele>918</ele>
        <time>2014-05-31T10:21:44Z</time>
      </trkpt>
      <trkpt lat="44.28751" lon="3.29876">
        <ele>918</ele>
        <time>2014-05-31T10:21:57Z</time>
      </trkpt>
      <trkpt lat="44.28756" lon="3.29861">
        <ele>918</ele>
        <time>2014-05-31T10:22:06Z</time>
      </trkpt>
      <trkpt lat="44.28761" lon="3.29846">
        <ele>918</ele>
        <time>2014-05-31T10:22:15Z</time>
      </trkpt>
      <trkpt lat="44.28767" lon="3.2983">
        <ele>918</ele>
        <time>2014-05-31T10:22:24Z</time>
      </trkpt>
      <trkpt lat="44.28773" lon="3.29816">
        <ele>917</ele>
        <time>2014-05-31T10:22:33Z</time>
      </trkpt>
      <trkpt lat="44.2878" lon="3.29803">
        <ele>916</ele>
        <time>2014-05-31T10:22:42Z</time>
      </trkpt>
      <trkpt lat="44.28787" lon="3.2979">
        <ele>914</ele>
        <time>2014-05-31T10:22:51Z</time>
      </trkpt>
      <trkpt lat="44.28793" lon="3.29776">
        <ele>911</ele>
        <time>2014-05-31T10:23:00Z</time>
      </trkpt>
      <trkpt lat="44.28799" lon="3.29763">
        <ele>909</ele>
        <time>2014-05-31T10:23:09Z</time>
      </trkpt>
      <trkpt lat="44.28808" lon="3.2975">
        <ele>909</ele>
        <time>2014-05-31T10:23:19Z</time>
      </trkpt>
      <trkpt lat="44.28817" lon="3.29736">
        <ele>908</ele>
        <time>2014-05-31T10:23:28Z</time>
      </trkpt>
      <trkpt lat="44.28823" lon="3.29724">
        <ele>908</ele>
        <time>2014-05-31T10:23:37Z</time>
      </trkpt>
      <trkpt lat="44.28829" lon="3.2971">
        <ele>906</ele>
        <time>2014-05-31T10:23:46Z</time>
      </trkpt>
      <trkpt lat="44.28836" lon="3.29694">
        <ele>906</ele>
        <time>2014-05-31T10:23:56Z</time>
      </trkpt>
      <trkpt lat="44.28843" lon="3.29677">
        <ele>906</ele>
        <time>2014-05-31T10:24:05Z</time>
      </trkpt>
      <trkpt lat="44.28851" lon="3.29663">
        <ele>906</ele>
        <time>2014-05-31T10:24:14Z</time>
      </trkpt>
      <trkpt lat="44.28857" lon="3.29646">
        <ele>905</ele>
        <time>2014-05-31T10:24:23Z</time>
      </trkpt>
      <trkpt lat="44.28862" lon="3.29629">
        <ele>905</ele>
        <time>2014-05-31T10:24:32Z</time>
      </trkpt>
      <trkpt lat="44.28867" lon="3.29611">
        <ele>905</ele>
        <time>2014-05-31T10:24:41Z</time>
      </trkpt>
      <trkpt lat="44.28872" lon="3.29596">
        <ele>905</ele>
        <time>2014-05-31T10:24:50Z</time>
      </trkpt>
      <trkpt lat="44.28874" lon="3.29581">
        <ele>905</ele>
        <time>2014-05-31T10:24:59Z</time>
      </trkpt>
      <trkpt lat="44.28877" lon="3.29564">
        <ele>905</ele>
        <time>2014-05-31T10:25:08Z</time>
      </trkpt>
      <trkpt lat="44.2888" lon="3.29545">
        <ele>905</ele>
        <time>2014-05-31T10:25:18Z</time>
      </trkpt>
      <trkpt lat="44.28878" lon="3.29527">
        <ele>905</ele>
        <time>2014-05-31T10:25:27Z</time>
      </trkpt>
      <trkpt lat="44.28878" lon="3.29509">
        <ele>905</ele>
        <time>2014-05-31T10:25:36Z</time>
      </trkpt>
      <trkpt lat="44.28878" lon="3.29492">
        <ele>905</ele>
        <time>2014-05-31T10:25:45Z</time>
      </trkpt>
      <trkpt lat="44.28877" lon="3.29475">
        <ele>905</ele>
        <time>2014-05-31T10:25:54Z</time>
      </trkpt>
      <trkpt lat="44.28876" lon="3.29457">
        <ele>905</ele>
        <time>2014-05-31T10:26:03Z</time>
      </trkpt>
      <trkpt lat="44.28875" lon="3.29441">
        <ele>905</ele>
        <time>2014-05-31T10:26:12Z</time>
      </trkpt>
      <trkpt lat="44.28876" lon="3.29426">
        <ele>905</ele>
        <time>2014-05-31T10:26:21Z</time>
      </trkpt>
      <trkpt lat="44.28877" lon="3.29418">
        <ele>905</ele>
        <time>2014-05-31T10:26:31Z</time>
      </trkpt>
      <trkpt lat="44.2888" lon="3.2941">
        <ele>905</ele>
        <time>2014-05-31T10:26:41Z</time>
      </trkpt>
      <trkpt lat="44.28885" lon="3.29396">
        <ele>905</ele>
        <time>2014-05-31T10:26:50Z</time>
      </trkpt>
      <trkpt lat="44.28886" lon="3.29385">
        <ele>905</ele>
        <time>2014-05-31T10:26:59Z</time>
      </trkpt>
      <trkpt lat="44.28891" lon="3.29371">
        <ele>905</ele>
        <time>2014-05-31T10:27:08Z</time>
      </trkpt>
      <trkpt lat="44.28896" lon="3.29354">
        <ele>904</ele>
        <time>2014-05-31T10:27:17Z</time>
      </trkpt>
      <trkpt lat="44.28902" lon="3.2934">
        <ele>904</ele>
        <time>2014-05-31T10:27:26Z</time>
      </trkpt>
      <trkpt lat="44.28908" lon="3.29325">
        <ele>903</ele>
        <time>2014-05-31T10:27:35Z</time>
      </trkpt>
      <trkpt lat="44.28914" lon="3.2931">
        <ele>902</ele>
        <time>2014-05-31T10:27:44Z</time>
      </trkpt>
      <trkpt lat="44.28919" lon="3.29295">
        <ele>900</ele>
        <time>2014-05-31T10:27:53Z</time>
      </trkpt>
      <trkpt lat="44.28926" lon="3.2928">
        <ele>900</ele>
        <time>2014-05-31T10:28:02Z</time>
      </trkpt>
      <trkpt lat="44.28932" lon="3.29267">
        <ele>899</ele>
        <time>2014-05-31T10:28:11Z</time>
      </trkpt>
      <trkpt lat="44.2894" lon="3.29256">
        <ele>898</ele>
        <time>2014-05-31T10:28:20Z</time>
      </trkpt>
      <trkpt lat="44.28949" lon="3.29245">
        <ele>898</ele>
        <time>2014-05-31T10:28:29Z</time>
      </trkpt>
      <trkpt lat="44.28959" lon="3.29234">
        <ele>898</ele>
        <time>2014-05-31T10:28:39Z</time>
      </trkpt>
      <trkpt lat="44.28967" lon="3.29222">
        <ele>898</ele>
        <time>2014-05-31T10:28:48Z</time>
      </trkpt>
      <trkpt lat="44.28974" lon="3.29209">
        <ele>898</ele>
        <time>2014-05-31T10:28:57Z</time>
      </trkpt>
      <trkpt lat="44.28983" lon="3.29196">
        <ele>896</ele>
        <time>2014-05-31T10:29:06Z</time>
      </trkpt>
      <trkpt lat="44.28991" lon="3.29183">
        <ele>896</ele>
        <time>2014-05-31T10:29:15Z</time>
      </trkpt>
      <trkpt lat="44.29" lon="3.29171">
        <ele>896</ele>
        <time>2014-05-31T10:29:24Z</time>
      </trkpt>
      <trkpt lat="44.2901" lon="3.2916">
        <ele>894</ele>
        <time>2014-05-31T10:29:34Z</time>
      </trkpt>
      <trkpt lat="44.2902" lon="3.29147">
        <ele>892</ele>
        <time>2014-05-31T10:29:43Z</time>
      </trkpt>
      <trkpt lat="44.29027" lon="3.29133">
        <ele>892</ele>
        <time>2014-05-31T10:29:52Z</time>
      </trkpt>
      <trkpt lat="44.29036" lon="3.29122">
        <ele>889</ele>
        <time>2014-05-31T10:30:01Z</time>
      </trkpt>
      <trkpt lat="44.29044" lon="3.29107">
        <ele>888</ele>
        <time>2014-05-31T10:30:10Z</time>
      </trkpt>
      <trkpt lat="44.29054" lon="3.29096">
        <ele>886</ele>
        <time>2014-05-31T10:30:19Z</time>
      </trkpt>
      <trkpt lat="44.29063" lon="3.29084">
        <ele>882</ele>
        <time>2014-05-31T10:30:28Z</time>
      </trkpt>
      <trkpt lat="44.29073" lon="3.29072">
        <ele>882</ele>
        <time>2014-05-31T10:30:37Z</time>
      </trkpt>
      <trkpt lat="44.29082" lon="3.29061">
        <ele>882</ele>
        <time>2014-05-31T10:30:47Z</time>
      </trkpt>
      <trkpt lat="44.29093" lon="3.29052">
        <ele>882</ele>
        <time>2014-05-31T10:30:56Z</time>
      </trkpt>
      <trkpt lat="44.29102" lon="3.29043">
        <ele>882</ele>
        <time>2014-05-31T10:31:06Z</time>
      </trkpt>
      <trkpt lat="44.29112" lon="3.29033">
        <ele>882</ele>
        <time>2014-05-31T10:31:15Z</time>
      </trkpt>
      <trkpt lat="44.29121" lon="3.29028">
        <ele>882</ele>
        <time>2014-05-31T10:31:24Z</time>
      </trkpt>
      <trkpt lat="44.29131" lon="3.29033">
        <ele>882</ele>
        <time>2014-05-31T10:31:33Z</time>
      </trkpt>
      <trkpt lat="44.2914" lon="3.29035">
        <ele>882</ele>
        <time>2014-05-31T10:31:42Z</time>
      </trkpt>
      <trkpt lat="44.29135" lon="3.29035">
        <ele>885</ele>
        <time>2014-05-31T10:31:51Z</time>
      </trkpt>
      <trkpt lat="44.29124" lon="3.29038">
        <ele>886</ele>
        <time>2014-05-31T10:32:00Z</time>
      </trkpt>
      <trkpt lat="44.29113" lon="3.29037">
        <ele>887</ele>
        <time>2014-05-31T10:32:09Z</time>
      </trkpt>
      <trkpt lat="44.29102" lon="3.29043">
        <ele>887</ele>
        <time>2014-05-31T10:32:18Z</time>
      </trkpt>
      <trkpt lat="44.29103" lon="3.29057">
        <ele>887</ele>
        <time>2014-05-31T10:32:28Z</time>
      </trkpt>
      <trkpt lat="44.29113" lon="3.29066">
        <ele>887</ele>
        <time>2014-05-31T10:32:37Z</time>
      </trkpt>
      <trkpt lat="44.2912" lon="3.2908">
        <ele>887</ele>
        <time>2014-05-31T10:32:47Z</time>
      </trkpt>
      <trkpt lat="44.2912" lon="3.29095">
        <ele>887</ele>
        <time>2014-05-31T10:32:56Z</time>
      </trkpt>
      <trkpt lat="44.29125" lon="3.29106">
        <ele>887</ele>
        <time>2014-05-31T10:33:05Z</time>
      </trkpt>
      <trkpt lat="44.29131" lon="3.2912">
        <ele>887</ele>
        <time>2014-05-31T10:33:14Z</time>
      </trkpt>
      <trkpt lat="44.29134" lon="3.29133">
        <ele>887</ele>
        <time>2014-05-31T10:33:23Z</time>
      </trkpt>
      <trkpt lat="44.29138" lon="3.29147">
        <ele>887</ele>
        <time>2014-05-31T10:33:32Z</time>
      </trkpt>
      <trkpt lat="44.29148" lon="3.29145">
        <ele>888</ele>
        <time>2014-05-31T10:33:41Z</time>
      </trkpt>
      <trkpt lat="44.29158" lon="3.29136">
        <ele>888</ele>
        <time>2014-05-31T10:33:51Z</time>
      </trkpt>
      <trkpt lat="44.29167" lon="3.2913">
        <ele>889</ele>
        <time>2014-05-31T10:34:01Z</time>
      </trkpt>
      <trkpt lat="44.29173" lon="3.29132">
        <ele>890</ele>
        <time>2014-05-31T10:34:12Z</time>
      </trkpt>
      <trkpt lat="44.29175" lon="3.29134">
        <ele>892</ele>
        <time>2014-05-31T10:34:24Z</time>
      </trkpt>
      <trkpt lat="44.29175" lon="3.29132">
        <ele>892</ele>
        <time>2014-05-31T10:34:38Z</time>
      </trkpt>
      <trkpt lat="44.29169" lon="3.29129">
        <ele>892</ele>
        <time>2014-05-31T10:34:48Z</time>
      </trkpt>
      <trkpt lat="44.29161" lon="3.29132">
        <ele>892</ele>
        <time>2014-05-31T10:34:57Z</time>
      </trkpt>
      <trkpt lat="44.2916" lon="3.29145">
        <ele>891</ele>
        <time>2014-05-31T10:35:07Z</time>
      </trkpt>
      <trkpt lat="44.29161" lon="3.29157">
        <ele>891</ele>
        <time>2014-05-31T10:35:16Z</time>
      </trkpt>
      <trkpt lat="44.29166" lon="3.29166">
        <ele>890</ele>
        <time>2014-05-31T10:35:25Z</time>
      </trkpt>
      <trkpt lat="44.29173" lon="3.29173">
        <ele>889</ele>
        <time>2014-05-31T10:35:34Z</time>
      </trkpt>
      <trkpt lat="44.29175" lon="3.29187">
        <ele>887</ele>
        <time>2014-05-31T10:35:43Z</time>
      </trkpt>
      <trkpt lat="44.29176" lon="3.29201">
        <ele>887</ele>
        <time>2014-05-31T10:35:52Z</time>
      </trkpt>
      <trkpt lat="44.29175" lon="3.29213">
        <ele>887</ele>
        <time>2014-05-31T10:36:02Z</time>
      </trkpt>
      <trkpt lat="44.29173" lon="3.29227">
        <ele>887</ele>
        <time>2014-05-31T10:36:12Z</time>
      </trkpt>
      <trkpt lat="44.29169" lon="3.29236">
        <ele>887</ele>
        <time>2014-05-31T10:36:21Z</time>
      </trkpt>
      <trkpt lat="44.29165" lon="3.29247">
        <ele>887</ele>
        <time>2014-05-31T10:36:30Z</time>
      </trkpt>
      <trkpt lat="44.29165" lon="3.2926">
        <ele>887</ele>
        <time>2014-05-31T10:36:39Z</time>
      </trkpt>
      <trkpt lat="44.29168" lon="3.29276">
        <ele>885</ele>
        <time>2014-05-31T10:36:48Z</time>
      </trkpt>
      <trkpt lat="44.29166" lon="3.29289">
        <ele>882</ele>
        <time>2014-05-31T10:36:57Z</time>
      </trkpt>
      <trkpt lat="44.29167" lon="3.29305">
        <ele>882</ele>
        <time>2014-05-31T10:37:06Z</time>
      </trkpt>
      <trkpt lat="44.29169" lon="3.29319">
        <ele>882</ele>
        <time>2014-05-31T10:37:16Z</time>
      </trkpt>
      <trkpt lat="44.29177" lon="3.29325">
        <ele>882</ele>
        <time>2014-05-31T10:37:25Z</time>
      </trkpt>
      <trkpt lat="44.29188" lon="3.29335">
        <ele>882</ele>
        <time>2014-05-31T10:37:34Z</time>
      </trkpt>
      <trkpt lat="44.29198" lon="3.29344">
        <ele>882</ele>
        <time>2014-05-31T10:37:43Z</time>
      </trkpt>
      <trkpt lat="44.29204" lon="3.29334">
        <ele>882</ele>
        <time>2014-05-31T10:37:52Z</time>
      </trkpt>
      <trkpt lat="44.29206" lon="3.29331">
        <ele>882</ele>
        <time>2014-05-31T10:38:02Z</time>
      </trkpt>
      <trkpt lat="44.29205" lon="3.29328">
        <ele>882</ele>
        <time>2014-05-31T10:38:12Z</time>
      </trkpt>
      <trkpt lat="44.29206" lon="3.29326">
        <ele>882</ele>
        <time>2014-05-31T10:38:22Z</time>
      </trkpt>
      <trkpt lat="44.29204" lon="3.29328">
        <ele>885</ele>
        <time>2014-05-31T10:38:33Z</time>
      </trkpt>
      <trkpt lat="44.29202" lon="3.29335">
        <ele>885</ele>
        <time>2014-05-31T10:38:42Z</time>
      </trkpt>
      <trkpt lat="44.29199" lon="3.29343">
        <ele>885</ele>
        <time>2014-05-31T10:38:51Z</time>
      </trkpt>
      <trkpt lat="44.292" lon="3.29353">
        <ele>885</ele>
        <time>2014-05-31T10:39:01Z</time>
      </trkpt>
      <trkpt lat="44.29203" lon="3.29366">
        <ele>885</ele>
        <time>2014-05-31T10:39:10Z</time>
      </trkpt>
      <trkpt lat="44.29205" lon="3.29382">
        <ele>885</ele>
        <time>2014-05-31T10:39:19Z</time>
      </trkpt>
      <trkpt lat="44.29203" lon="3.29398">
        <ele>885</ele>
        <time>2014-05-31T10:39:30Z</time>
      </trkpt>
      <trkpt lat="44.29206" lon="3.29413">
        <ele>885</ele>
        <time>2014-05-31T10:39:42Z</time>
      </trkpt>
      <trkpt lat="44.29207" lon="3.29415">
        <ele>885</ele>
        <time>2014-05-31T10:40:05Z</time>
      </trkpt>
      <trkpt lat="44.29214" lon="3.29425">
        <ele>885</ele>
        <time>2014-05-31T10:40:15Z</time>
      </trkpt>
      <trkpt lat="44.29224" lon="3.29428">
        <ele>881</ele>
        <time>2014-05-31T10:40:24Z</time>
      </trkpt>
      <trkpt lat="44.29236" lon="3.29436">
        <ele>879</ele>
        <time>2014-05-31T10:40:34Z</time>
      </trkpt>
      <trkpt lat="44.29246" lon="3.29434">
        <ele>879</ele>
        <time>2014-05-31T10:40:44Z</time>
      </trkpt>
      <trkpt lat="44.29249" lon="3.29422">
        <ele>877</ele>
        <time>2014-05-31T10:40:54Z</time>
      </trkpt>
      <trkpt lat="44.29252" lon="3.29417">
        <ele>877</ele>
        <time>2014-05-31T10:41:15Z</time>
      </trkpt>
      <trkpt lat="44.29251" lon="3.29419">
        <ele>877</ele>
        <time>2014-05-31T10:41:47Z</time>
      </trkpt>
      <trkpt lat="44.2925" lon="3.29428">
        <ele>877</ele>
        <time>2014-05-31T10:41:57Z</time>
      </trkpt>
      <trkpt lat="44.29251" lon="3.29441">
        <ele>877</ele>
        <time>2014-05-31T10:42:07Z</time>
      </trkpt>
      <trkpt lat="44.29261" lon="3.2945">
        <ele>877</ele>
        <time>2014-05-31T10:42:17Z</time>
      </trkpt>
      <trkpt lat="44.29266" lon="3.29463">
        <ele>876</ele>
        <time>2014-05-31T10:42:26Z</time>
      </trkpt>
      <trkpt lat="44.29271" lon="3.29477">
        <ele>875</ele>
        <time>2014-05-31T10:42:35Z</time>
      </trkpt>
      <trkpt lat="44.29274" lon="3.29489">
        <ele>873</ele>
        <time>2014-05-31T10:42:45Z</time>
      </trkpt>
      <trkpt lat="44.29281" lon="3.295">
        <ele>872</ele>
        <time>2014-05-31T10:42:54Z</time>
      </trkpt>
      <trkpt lat="44.29288" lon="3.29508">
        <ele>870</ele>
        <time>2014-05-31T10:43:04Z</time>
      </trkpt>
      <trkpt lat="44.29302" lon="3.29514">
        <ele>870</ele>
        <time>2014-05-31T10:43:15Z</time>
      </trkpt>
      <trkpt lat="44.2931" lon="3.29514">
        <ele>870</ele>
        <time>2014-05-31T10:43:25Z</time>
      </trkpt>
      <trkpt lat="44.29317" lon="3.29511">
        <ele>870</ele>
        <time>2014-05-31T10:43:35Z</time>
      </trkpt>
      <trkpt lat="44.29321" lon="3.29507">
        <ele>868</ele>
        <time>2014-05-31T10:43:45Z</time>
      </trkpt>
      <trkpt lat="44.29324" lon="3.29501">
        <ele>866</ele>
        <time>2014-05-31T10:44:01Z</time>
      </trkpt>
      <trkpt lat="44.29326" lon="3.29501">
        <ele>866</ele>
        <time>2014-05-31T10:44:22Z</time>
      </trkpt>
      <trkpt lat="44.29326" lon="3.29503">
        <ele>866</ele>
        <time>2014-05-31T10:44:47Z</time>
      </trkpt>
      <trkpt lat="44.29325" lon="3.29508">
        <ele>866</ele>
        <time>2014-05-31T10:44:57Z</time>
      </trkpt>
      <trkpt lat="44.29332" lon="3.29518">
        <ele>864</ele>
        <time>2014-05-31T10:45:07Z</time>
      </trkpt>
      <trkpt lat="44.2934" lon="3.29528">
        <ele>864</ele>
        <time>2014-05-31T10:45:16Z</time>
      </trkpt>
      <trkpt lat="44.29346" lon="3.29538">
        <ele>864</ele>
        <time>2014-05-31T10:45:26Z</time>
      </trkpt>
      <trkpt lat="44.29348" lon="3.29551">
        <ele>864</ele>
        <time>2014-05-31T10:45:35Z</time>
      </trkpt>
      <trkpt lat="44.29344" lon="3.29557">
        <ele>864</ele>
        <time>2014-05-31T10:45:46Z</time>
      </trkpt>
      <trkpt lat="44.29348" lon="3.29571">
        <ele>864</ele>
        <time>2014-05-31T10:45:55Z</time>
      </trkpt>
      <trkpt lat="44.29357" lon="3.29582">
        <ele>864</ele>
        <time>2014-05-31T10:46:05Z</time>
      </trkpt>
      <trkpt lat="44.29363" lon="3.29595">
        <ele>864</ele>
        <time>2014-05-31T10:46:14Z</time>
      </trkpt>
      <trkpt lat="44.29368" lon="3.29606">
        <ele>864</ele>
        <time>2014-05-31T10:46:23Z</time>
      </trkpt>
      <trkpt lat="44.29372" lon="3.29618">
        <ele>863</ele>
        <time>2014-05-31T10:46:33Z</time>
      </trkpt>
      <trkpt lat="44.29375" lon="3.29631">
        <ele>859</ele>
        <time>2014-05-31T10:46:43Z</time>
      </trkpt>
      <trkpt lat="44.29379" lon="3.29639">
        <ele>859</ele>
        <time>2014-05-31T10:46:54Z</time>
      </trkpt>
      <trkpt lat="44.2938" lon="3.29638">
        <ele>859</ele>
        <time>2014-05-31T10:47:05Z</time>
      </trkpt>
      <trkpt lat="44.2938" lon="3.29641">
        <ele>859</ele>
        <time>2014-05-31T10:47:18Z</time>
      </trkpt>
      <trkpt lat="44.29387" lon="3.29651">
        <ele>859</ele>
        <time>2014-05-31T10:47:28Z</time>
      </trkpt>
      <trkpt lat="44.29395" lon="3.29662">
        <ele>859</ele>
        <time>2014-05-31T10:47:38Z</time>
      </trkpt>
      <trkpt lat="44.29399" lon="3.29673">
        <ele>856</ele>
        <time>2014-05-31T10:47:48Z</time>
      </trkpt>
      <trkpt lat="44.29404" lon="3.29688">
        <ele>853</ele>
        <time>2014-05-31T10:47:59Z</time>
      </trkpt>
      <trkpt lat="44.29408" lon="3.29697">
        <ele>850</ele>
        <time>2014-05-31T10:48:08Z</time>
      </trkpt>
      <trkpt lat="44.29408" lon="3.29712">
        <ele>850</ele>
        <time>2014-05-31T10:48:18Z</time>
      </trkpt>
      <trkpt lat="44.29409" lon="3.29726">
        <ele>848</ele>
        <time>2014-05-31T10:48:28Z</time>
      </trkpt>
      <trkpt lat="44.29408" lon="3.2974">
        <ele>844</ele>
        <time>2014-05-31T10:48:39Z</time>
      </trkpt>
      <trkpt lat="44.2941" lon="3.29753">
        <ele>844</ele>
        <time>2014-05-31T10:48:48Z</time>
      </trkpt>
      <trkpt lat="44.29412" lon="3.29771">
        <ele>844</ele>
        <time>2014-05-31T10:48:58Z</time>
      </trkpt>
      <trkpt lat="44.29417" lon="3.29779">
        <ele>842</ele>
        <time>2014-05-31T10:49:08Z</time>
      </trkpt>
      <trkpt lat="44.29424" lon="3.29786">
        <ele>842</ele>
        <time>2014-05-31T10:49:18Z</time>
      </trkpt>
      <trkpt lat="44.29435" lon="3.29792">
        <ele>842</ele>
        <time>2014-05-31T10:49:28Z</time>
      </trkpt>
      <trkpt lat="44.29442" lon="3.29801">
        <ele>842</ele>
        <time>2014-05-31T10:49:38Z</time>
      </trkpt>
      <trkpt lat="44.29446" lon="3.29813">
        <ele>842</ele>
        <time>2014-05-31T10:49:48Z</time>
      </trkpt>
      <trkpt lat="44.29452" lon="3.29824">
        <ele>842</ele>
        <time>2014-05-31T10:49:59Z</time>
      </trkpt>
      <trkpt lat="44.29459" lon="3.29825">
        <ele>842</ele>
        <time>2014-05-31T10:50:09Z</time>
      </trkpt>
      <trkpt lat="44.29457" lon="3.29818">
        <ele>842</ele>
        <time>2014-05-31T10:50:18Z</time>
      </trkpt>
      <trkpt lat="44.29465" lon="3.29819">
        <ele>842</ele>
        <time>2014-05-31T10:50:29Z</time>
      </trkpt>
      <trkpt lat="44.29468" lon="3.29817">
        <ele>842</ele>
        <time>2014-05-31T10:50:39Z</time>
      </trkpt>
      <trkpt lat="44.29465" lon="3.29812">
        <ele>839</ele>
        <time>2014-05-31T10:50:49Z</time>
      </trkpt>
      <trkpt lat="44.29467" lon="3.29809">
        <ele>839</ele>
        <time>2014-05-31T10:50:59Z</time>
      </trkpt>
      <trkpt lat="44.29469" lon="3.29804">
        <ele>839</ele>
        <time>2014-05-31T10:51:08Z</time>
      </trkpt>
      <trkpt lat="44.29468" lon="3.29796">
        <ele>836</ele>
        <time>2014-05-31T10:51:19Z</time>
      </trkpt>
      <trkpt lat="44.29472" lon="3.29796">
        <ele>833</ele>
        <time>2014-05-31T10:51:28Z</time>
      </trkpt>
      <trkpt lat="44.2948" lon="3.29794">
        <ele>831</ele>
        <time>2014-05-31T10:51:39Z</time>
      </trkpt>
      <trkpt lat="44.29482" lon="3.29788">
        <ele>830</ele>
        <time>2014-05-31T10:51:49Z</time>
      </trkpt>
      <trkpt lat="44.29485" lon="3.29788">
        <ele>828</ele>
        <time>2014-05-31T10:51:58Z</time>
      </trkpt>
      <trkpt lat="44.29491" lon="3.29783">
        <ele>825</ele>
        <time>2014-05-31T10:52:10Z</time>
      </trkpt>
      <trkpt lat="44.295" lon="3.29784">
        <ele>822</ele>
        <time>2014-05-31T10:52:21Z</time>
      </trkpt>
      <trkpt lat="44.29509" lon="3.29789">
        <ele>817</ele>
        <time>2014-05-31T10:52:31Z</time>
      </trkpt>
      <trkpt lat="44.29516" lon="3.29795">
        <ele>813</ele>
        <time>2014-05-31T10:52:41Z</time>
      </trkpt>
      <trkpt lat="44.29522" lon="3.298">
        <ele>812</ele>
        <time>2014-05-31T10:52:50Z</time>
      </trkpt>
      <trkpt lat="44.2953" lon="3.29798">
        <ele>812</ele>
        <time>2014-05-31T10:53:00Z</time>
      </trkpt>
      <trkpt lat="44.29538" lon="3.29796">
        <ele>812</ele>
        <time>2014-05-31T10:53:10Z</time>
      </trkpt>
      <trkpt lat="44.29546" lon="3.29796">
        <ele>809</ele>
        <time>2014-05-31T10:53:20Z</time>
      </trkpt>
      <trkpt lat="44.29554" lon="3.29801">
        <ele>807</ele>
        <time>2014-05-31T10:53:29Z</time>
      </trkpt>
      <trkpt lat="44.29562" lon="3.29807">
        <ele>804</ele>
        <time>2014-05-31T10:53:39Z</time>
      </trkpt>
      <trkpt lat="44.29569" lon="3.29813">
        <ele>800</ele>
        <time>2014-05-31T10:53:48Z</time>
      </trkpt>
      <trkpt lat="44.29577" lon="3.29814">
        <ele>799</ele>
        <time>2014-05-31T10:53:57Z</time>
      </trkpt>
      <trkpt lat="44.29585" lon="3.29814">
        <ele>799</ele>
        <time>2014-05-31T10:54:06Z</time>
      </trkpt>
      <trkpt lat="44.29592" lon="3.29812">
        <ele>797</ele>
        <time>2014-05-31T10:54:15Z</time>
      </trkpt>
      <trkpt lat="44.29601" lon="3.29807">
        <ele>794</ele>
        <time>2014-05-31T10:54:25Z</time>
      </trkpt>
      <trkpt lat="44.29609" lon="3.29805">
        <ele>791</ele>
        <time>2014-05-31T10:54:35Z</time>
      </trkpt>
      <trkpt lat="44.29615" lon="3.29805">
        <ele>789</ele>
        <time>2014-05-31T10:54:44Z</time>
      </trkpt>
      <trkpt lat="44.29621" lon="3.29814">
        <ele>787</ele>
        <time>2014-05-31T10:54:55Z</time>
      </trkpt>
      <trkpt lat="44.29624" lon="3.2982">
        <ele>782</ele>
        <time>2014-05-31T10:55:04Z</time>
      </trkpt>
      <trkpt lat="44.29628" lon="3.29827">
        <ele>777</ele>
        <time>2014-05-31T10:55:14Z</time>
      </trkpt>
      <trkpt lat="44.29632" lon="3.29826">
        <ele>777</ele>
        <time>2014-05-31T10:55:23Z</time>
      </trkpt>
      <trkpt lat="44.29634" lon="3.29819">
        <ele>775</ele>
        <time>2014-05-31T10:55:34Z</time>
      </trkpt>
      <trkpt lat="44.29638" lon="3.29824">
        <ele>774</ele>
        <time>2014-05-31T10:55:44Z</time>
      </trkpt>
      <trkpt lat="44.2964" lon="3.29834">
        <ele>772</ele>
        <time>2014-05-31T10:55:56Z</time>
      </trkpt>
      <trkpt lat="44.29644" lon="3.29826">
        <ele>771</ele>
        <time>2014-05-31T10:56:07Z</time>
      </trkpt>
      <trkpt lat="44.29649" lon="3.29813">
        <ele>769</ele>
        <time>2014-05-31T10:56:16Z</time>
      </trkpt>
      <trkpt lat="44.29651" lon="3.29801">
        <ele>767</ele>
        <time>2014-05-31T10:56:25Z</time>
      </trkpt>
      <trkpt lat="44.29657" lon="3.29795">
        <ele>762</ele>
        <time>2014-05-31T10:56:36Z</time>
      </trkpt>
      <trkpt lat="44.29665" lon="3.29799">
        <ele>760</ele>
        <time>2014-05-31T10:56:54Z</time>
      </trkpt>
      <trkpt lat="44.29668" lon="3.29808">
        <ele>758</ele>
        <time>2014-05-31T10:57:04Z</time>
      </trkpt>
      <trkpt lat="44.29667" lon="3.29817">
        <ele>753</ele>
        <time>2014-05-31T10:57:14Z</time>
      </trkpt>
      <trkpt lat="44.29668" lon="3.29825">
        <ele>747</ele>
        <time>2014-05-31T10:57:24Z</time>
      </trkpt>
      <trkpt lat="44.29668" lon="3.29835">
        <ele>744</ele>
        <time>2014-05-31T10:57:34Z</time>
      </trkpt>
      <trkpt lat="44.29665" lon="3.29853">
        <ele>733</ele>
        <time>2014-05-31T10:57:43Z</time>
      </trkpt>
      <trkpt lat="44.29671" lon="3.29854">
        <ele>744</ele>
        <time>2014-05-31T10:57:53Z</time>
      </trkpt>
      <trkpt lat="44.29671" lon="3.29859">
        <ele>744</ele>
        <time>2014-05-31T10:58:02Z</time>
      </trkpt>
      <trkpt lat="44.29673" lon="3.29865">
        <ele>743</ele>
        <time>2014-05-31T10:58:13Z</time>
      </trkpt>
      <trkpt lat="44.29677" lon="3.29873">
        <ele>741</ele>
        <time>2014-05-31T10:58:25Z</time>
      </trkpt>
      <trkpt lat="44.29679" lon="3.29878">
        <ele>740</ele>
        <time>2014-05-31T10:58:35Z</time>
      </trkpt>
      <trkpt lat="44.29681" lon="3.29886">
        <ele>738</ele>
        <time>2014-05-31T10:58:44Z</time>
      </trkpt>
      <trkpt lat="44.29682" lon="3.29897">
        <ele>735</ele>
        <time>2014-05-31T10:58:54Z</time>
      </trkpt>
      <trkpt lat="44.29683" lon="3.29913">
        <ele>731</ele>
        <time>2014-05-31T10:59:05Z</time>
      </trkpt>
      <trkpt lat="44.29688" lon="3.29915">
        <ele>731</ele>
        <time>2014-05-31T10:59:15Z</time>
      </trkpt>
      <trkpt lat="44.29691" lon="3.29921">
        <ele>731</ele>
        <time>2014-05-31T10:59:27Z</time>
      </trkpt>
      <trkpt lat="44.29696" lon="3.29922">
        <ele>727</ele>
        <time>2014-05-31T10:59:38Z</time>
      </trkpt>
      <trkpt lat="44.29701" lon="3.29928">
        <ele>724</ele>
        <time>2014-05-31T10:59:48Z</time>
      </trkpt>
      <trkpt lat="44.29708" lon="3.29933">
        <ele>720</ele>
        <time>2014-05-31T10:59:57Z</time>
      </trkpt>
      <trkpt lat="44.29718" lon="3.29937">
        <ele>718</ele>
        <time>2014-05-31T11:00:06Z</time>
      </trkpt>
      <trkpt lat="44.29725" lon="3.29942">
        <ele>715</ele>
        <time>2014-05-31T11:00:16Z</time>
      </trkpt>
      <trkpt lat="44.29726" lon="3.29951">
        <ele>713</ele>
        <time>2014-05-31T11:00:27Z</time>
      </trkpt>
      <trkpt lat="44.29727" lon="3.2996">
        <ele>712</ele>
        <time>2014-05-31T11:00:36Z</time>
      </trkpt>
      <trkpt lat="44.29728" lon="3.2997">
        <ele>712</ele>
        <time>2014-05-31T11:00:46Z</time>
      </trkpt>
      <trkpt lat="44.29731" lon="3.29971">
        <ele>708</ele>
        <time>2014-05-31T11:00:57Z</time>
      </trkpt>
      <trkpt lat="44.29739" lon="3.29968">
        <ele>706</ele>
        <time>2014-05-31T11:01:07Z</time>
      </trkpt>
      <trkpt lat="44.29744" lon="3.2997">
        <ele>705</ele>
        <time>2014-05-31T11:01:17Z</time>
      </trkpt>
      <trkpt lat="44.29747" lon="3.29969">
        <ele>700</ele>
        <time>2014-05-31T11:01:28Z</time>
      </trkpt>
      <trkpt lat="44.29754" lon="3.29973">
        <ele>698</ele>
        <time>2014-05-31T11:01:38Z</time>
      </trkpt>
      <trkpt lat="44.29755" lon="3.29967">
        <ele>692</ele>
        <time>2014-05-31T11:01:51Z</time>
      </trkpt>
      <trkpt lat="44.2976" lon="3.29966">
        <ele>689</ele>
        <time>2014-05-31T11:02:02Z</time>
      </trkpt>
      <trkpt lat="44.29762" lon="3.29961">
        <ele>685</ele>
        <time>2014-05-31T11:02:11Z</time>
      </trkpt>
      <trkpt lat="44.29763" lon="3.29948">
        <ele>683</ele>
        <time>2014-05-31T11:02:22Z</time>
      </trkpt>
      <trkpt lat="44.29767" lon="3.29945">
        <ele>683</ele>
        <time>2014-05-31T11:02:33Z</time>
      </trkpt>
      <trkpt lat="44.29768" lon="3.29939">
        <ele>680</ele>
        <time>2014-05-31T11:02:42Z</time>
      </trkpt>
      <trkpt lat="44.29768" lon="3.29931">
        <ele>675</ele>
        <time>2014-05-31T11:02:52Z</time>
      </trkpt>
      <trkpt lat="44.29771" lon="3.2992">
        <ele>670</ele>
        <time>2014-05-31T11:03:02Z</time>
      </trkpt>
      <trkpt lat="44.29774" lon="3.29906">
        <ele>669</ele>
        <time>2014-05-31T11:03:12Z</time>
      </trkpt>
      <trkpt lat="44.29771" lon="3.29891">
        <ele>668</ele>
        <time>2014-05-31T11:03:23Z</time>
      </trkpt>
      <trkpt lat="44.29771" lon="3.29882">
        <ele>665</ele>
        <time>2014-05-31T11:03:33Z</time>
      </trkpt>
      <trkpt lat="44.29774" lon="3.29869">
        <ele>664</ele>
        <time>2014-05-31T11:03:43Z</time>
      </trkpt>
      <trkpt lat="44.29779" lon="3.29859">
        <ele>662</ele>
        <time>2014-05-31T11:03:53Z</time>
      </trkpt>
      <trkpt lat="44.29783" lon="3.2985">
        <ele>661</ele>
        <time>2014-05-31T11:04:02Z</time>
      </trkpt>
      <trkpt lat="44.29784" lon="3.29841">
        <ele>656</ele>
        <time>2014-05-31T11:04:14Z</time>
      </trkpt>
      <trkpt lat="44.29786" lon="3.29832">
        <ele>654</ele>
        <time>2014-05-31T11:04:23Z</time>
      </trkpt>
      <trkpt lat="44.29789" lon="3.2982">
        <ele>651</ele>
        <time>2014-05-31T11:04:32Z</time>
      </trkpt>
      <trkpt lat="44.29792" lon="3.29809">
        <ele>649</ele>
        <time>2014-05-31T11:04:41Z</time>
      </trkpt>
      <trkpt lat="44.29796" lon="3.29794">
        <ele>645</ele>
        <time>2014-05-31T11:04:52Z</time>
      </trkpt>
      <trkpt lat="44.29799" lon="3.29782">
        <ele>643</ele>
        <time>2014-05-31T11:05:02Z</time>
      </trkpt>
      <trkpt lat="44.29799" lon="3.29772">
        <ele>639</ele>
        <time>2014-05-31T11:05:11Z</time>
      </trkpt>
      <trkpt lat="44.29799" lon="3.29761">
        <ele>639</ele>
        <time>2014-05-31T11:05:20Z</time>
      </trkpt>
      <trkpt lat="44.298" lon="3.29749">
        <ele>636</ele>
        <time>2014-05-31T11:05:29Z</time>
      </trkpt>
      <trkpt lat="44.29805" lon="3.29736">
        <ele>633</ele>
        <time>2014-05-31T11:05:39Z</time>
      </trkpt>
      <trkpt lat="44.29809" lon="3.29722">
        <ele>633</ele>
        <time>2014-05-31T11:05:48Z</time>
      </trkpt>
      <trkpt lat="44.2981" lon="3.29704">
        <ele>633</ele>
        <time>2014-05-31T11:05:58Z</time>
      </trkpt>
      <trkpt lat="44.29809" lon="3.29692">
        <ele>633</ele>
        <time>2014-05-31T11:06:07Z</time>
      </trkpt>
      <trkpt lat="44.2981" lon="3.29682">
        <ele>631</ele>
        <time>2014-05-31T11:06:16Z</time>
      </trkpt>
      <trkpt lat="44.2981" lon="3.29674">
        <ele>627</ele>
        <time>2014-05-31T11:06:26Z</time>
      </trkpt>
      <trkpt lat="44.29811" lon="3.29665">
        <ele>625</ele>
        <time>2014-05-31T11:06:35Z</time>
      </trkpt>
      <trkpt lat="44.29812" lon="3.29661">
        <ele>621</ele>
        <time>2014-05-31T11:06:44Z</time>
      </trkpt>
      <trkpt lat="44.29814" lon="3.29658">
        <ele>617</ele>
        <time>2014-05-31T11:06:53Z</time>
      </trkpt>
      <trkpt lat="44.29805" lon="3.29647">
        <ele>614</ele>
        <time>2014-05-31T11:07:04Z</time>
      </trkpt>
      <trkpt lat="44.29795" lon="3.29647">
        <ele>612</ele>
        <time>2014-05-31T11:07:13Z</time>
      </trkpt>
      <trkpt lat="44.29785" lon="3.2965">
        <ele>609</ele>
        <time>2014-05-31T11:07:23Z</time>
      </trkpt>
      <trkpt lat="44.29777" lon="3.29653">
        <ele>607</ele>
        <time>2014-05-31T11:07:32Z</time>
      </trkpt>
      <trkpt lat="44.29768" lon="3.29647">
        <ele>607</ele>
        <time>2014-05-31T11:07:42Z</time>
      </trkpt>
      <trkpt lat="44.29761" lon="3.29645">
        <ele>607</ele>
        <time>2014-05-31T11:07:51Z</time>
      </trkpt>
      <trkpt lat="44.29755" lon="3.29643">
        <ele>607</ele>
        <time>2014-05-31T11:08:04Z</time>
      </trkpt>
      <trkpt lat="44.29754" lon="3.29641">
        <ele>607</ele>
        <time>2014-05-31T11:08:20Z</time>
      </trkpt>
      <trkpt lat="44.29753" lon="3.29642">
        <ele>607</ele>
        <time>2014-05-31T11:08:30Z</time>
      </trkpt>
      <trkpt lat="44.29743" lon="3.29641">
        <ele>607</ele>
        <time>2014-05-31T11:08:39Z</time>
      </trkpt>
      <trkpt lat="44.29734" lon="3.29638">
        <ele>607</ele>
        <time>2014-05-31T11:08:49Z</time>
      </trkpt>
      <trkpt lat="44.29722" lon="3.29631">
        <ele>606</ele>
        <time>2014-05-31T11:09:00Z</time>
      </trkpt>
      <trkpt lat="44.29719" lon="3.29622">
        <ele>606</ele>
        <time>2014-05-31T11:09:09Z</time>
      </trkpt>
      <trkpt lat="44.29719" lon="3.29609">
        <ele>606</ele>
        <time>2014-05-31T11:09:19Z</time>
      </trkpt>
      <trkpt lat="44.29722" lon="3.29596">
        <ele>613</ele>
        <time>2014-05-31T11:09:29Z</time>
      </trkpt>
      <trkpt lat="44.29731" lon="3.29597">
        <ele>613</ele>
        <time>2014-05-31T11:09:41Z</time>
      </trkpt>
      <trkpt lat="44.29729" lon="3.296">
        <ele>613</ele>
        <time>2014-05-31T11:09:54Z</time>
      </trkpt>
      <trkpt lat="44.29736" lon="3.296">
        <ele>613</ele>
        <time>2014-05-31T11:10:05Z</time>
      </trkpt>
      <trkpt lat="44.29737" lon="3.29598">
        <ele>609</ele>
        <time>2014-05-31T11:10:14Z</time>
      </trkpt>
      <trkpt lat="44.2974" lon="3.29589">
        <ele>608</ele>
        <time>2014-05-31T11:10:24Z</time>
      </trkpt>
      <trkpt lat="44.29741" lon="3.29577">
        <ele>608</ele>
        <time>2014-05-31T11:10:34Z</time>
      </trkpt>
      <trkpt lat="44.29739" lon="3.29557">
        <ele>608</ele>
        <time>2014-05-31T11:10:43Z</time>
      </trkpt>
      <trkpt lat="44.29742" lon="3.29554">
        <ele>605</ele>
        <time>2014-05-31T11:10:55Z</time>
      </trkpt>
      <trkpt lat="44.29745" lon="3.29545">
        <ele>596</ele>
        <time>2014-05-31T11:11:04Z</time>
      </trkpt>
      <trkpt lat="44.29744" lon="3.29541">
        <ele>589</ele>
        <time>2014-05-31T11:11:15Z</time>
      </trkpt>
      <trkpt lat="44.29742" lon="3.29534">
        <ele>581</ele>
        <time>2014-05-31T11:11:26Z</time>
      </trkpt>
      <trkpt lat="44.29754" lon="3.29523">
        <ele>580</ele>
        <time>2014-05-31T11:11:36Z</time>
      </trkpt>
      <trkpt lat="44.29782" lon="3.29513">
        <ele>583</ele>
        <time>2014-05-31T11:11:46Z</time>
      </trkpt>
      <trkpt lat="44.29796" lon="3.29514">
        <ele>590</ele>
        <time>2014-05-31T11:11:56Z</time>
      </trkpt>
      <trkpt lat="44.29772" lon="3.29529">
        <ele>589</ele>
        <time>2014-05-31T11:12:05Z</time>
      </trkpt>
      <trkpt lat="44.29763" lon="3.29539">
        <ele>581</ele>
        <time>2014-05-31T11:12:14Z</time>
      </trkpt>
      <trkpt lat="44.29762" lon="3.29546">
        <ele>570</ele>
        <time>2014-05-31T11:12:27Z</time>
      </trkpt>
      <trkpt lat="44.29757" lon="3.29541">
        <ele>566</ele>
        <time>2014-05-31T11:12:37Z</time>
      </trkpt>
      <trkpt lat="44.29762" lon="3.29536">
        <ele>566</ele>
        <time>2014-05-31T11:12:46Z</time>
      </trkpt>
      <trkpt lat="44.29767" lon="3.29533">
        <ele>566</ele>
        <time>2014-05-31T11:13:00Z</time>
      </trkpt>
      <trkpt lat="44.29768" lon="3.29533">
        <ele>566</ele>
        <time>2014-05-31T11:13:11Z</time>
      </trkpt>
      <trkpt lat="44.29777" lon="3.29519">
        <ele>566</ele>
        <time>2014-05-31T11:13:20Z</time>
      </trkpt>
      <trkpt lat="44.29781" lon="3.29504">
        <ele>566</ele>
        <time>2014-05-31T11:13:29Z</time>
      </trkpt>
      <trkpt lat="44.29779" lon="3.29488">
        <ele>562</ele>
        <time>2014-05-31T11:13:38Z</time>
      </trkpt>
      <trkpt lat="44.29777" lon="3.29472">
        <ele>560</ele>
        <time>2014-05-31T11:13:47Z</time>
      </trkpt>
      <trkpt lat="44.29776" lon="3.29458">
        <ele>557</ele>
        <time>2014-05-31T11:13:56Z</time>
      </trkpt>
      <trkpt lat="44.29774" lon="3.29443">
        <ele>555</ele>
        <time>2014-05-31T11:14:05Z</time>
      </trkpt>
      <trkpt lat="44.29775" lon="3.29429">
        <ele>549</ele>
        <time>2014-05-31T11:14:16Z</time>
      </trkpt>
      <trkpt lat="44.29773" lon="3.29416">
        <ele>546</ele>
        <time>2014-05-31T11:14:26Z</time>
      </trkpt>
      <trkpt lat="44.2977" lon="3.29403">
        <ele>543</ele>
        <time>2014-05-31T11:14:37Z</time>
      </trkpt>
      <trkpt lat="44.29768" lon="3.29393">
        <ele>541</ele>
        <time>2014-05-31T11:14:46Z</time>
      </trkpt>
      <trkpt lat="44.29767" lon="3.29386">
        <ele>537</ele>
        <time>2014-05-31T11:14:56Z</time>
      </trkpt>
      <trkpt lat="44.29765" lon="3.29377">
        <ele>533</ele>
        <time>2014-05-31T11:15:05Z</time>
      </trkpt>
      <trkpt lat="44.29761" lon="3.29367">
        <ele>531</ele>
        <time>2014-05-31T11:15:15Z</time>
      </trkpt>
      <trkpt lat="44.2976" lon="3.29358">
        <ele>529</ele>
        <time>2014-05-31T11:15:25Z</time>
      </trkpt>
      <trkpt lat="44.29765" lon="3.29362">
        <ele>527</ele>
        <time>2014-05-31T11:15:39Z</time>
      </trkpt>
      <trkpt lat="44.2977" lon="3.29365">
        <ele>525</ele>
        <time>2014-05-31T11:15:52Z</time>
      </trkpt>
      <trkpt lat="44.29781" lon="3.29368">
        <ele>521</ele>
        <time>2014-05-31T11:16:01Z</time>
      </trkpt>
      <trkpt lat="44.2979" lon="3.29369">
        <ele>519</ele>
        <time>2014-05-31T11:16:13Z</time>
      </trkpt>
      <trkpt lat="44.29792" lon="3.29364">
        <ele>518</ele>
        <time>2014-05-31T11:16:22Z</time>
      </trkpt>
      <trkpt lat="44.29797" lon="3.29369">
        <ele>514</ele>
        <time>2014-05-31T11:16:32Z</time>
      </trkpt>
      <trkpt lat="44.29798" lon="3.29356">
        <ele>513</ele>
        <time>2014-05-31T11:16:41Z</time>
      </trkpt>
      <trkpt lat="44.29797" lon="3.29346">
        <ele>510</ele>
        <time>2014-05-31T11:16:52Z</time>
      </trkpt>
      <trkpt lat="44.29804" lon="3.29351">
        <ele>509</ele>
        <time>2014-05-31T11:17:02Z</time>
      </trkpt>
      <trkpt lat="44.29808" lon="3.29355">
        <ele>506</ele>
        <time>2014-05-31T11:17:11Z</time>
      </trkpt>
      <trkpt lat="44.29814" lon="3.29354">
        <ele>506</ele>
        <time>2014-05-31T11:17:20Z</time>
      </trkpt>
      <trkpt lat="44.29821" lon="3.29356">
        <ele>503</ele>
        <time>2014-05-31T11:17:30Z</time>
      </trkpt>
      <trkpt lat="44.29829" lon="3.29359">
        <ele>498</ele>
        <time>2014-05-31T11:17:40Z</time>
      </trkpt>
      <trkpt lat="44.29838" lon="3.29362">
        <ele>495</ele>
        <time>2014-05-31T11:17:49Z</time>
      </trkpt>
      <trkpt lat="44.29845" lon="3.29367">
        <ele>493</ele>
        <time>2014-05-31T11:17:58Z</time>
      </trkpt>
      <trkpt lat="44.29854" lon="3.29378">
        <ele>493</ele>
        <time>2014-05-31T11:18:08Z</time>
      </trkpt>
      <trkpt lat="44.29859" lon="3.29374">
        <ele>492</ele>
        <time>2014-05-31T11:18:17Z</time>
      </trkpt>
      <trkpt lat="44.29861" lon="3.29362">
        <ele>490</ele>
        <time>2014-05-31T11:18:26Z</time>
      </trkpt>
      <trkpt lat="44.29864" lon="3.29358">
        <ele>490</ele>
        <time>2014-05-31T11:18:35Z</time>
      </trkpt>
      <trkpt lat="44.29867" lon="3.29366">
        <ele>485</ele>
        <time>2014-05-31T11:18:45Z</time>
      </trkpt>
      <trkpt lat="44.29874" lon="3.29375">
        <ele>483</ele>
        <time>2014-05-31T11:18:54Z</time>
      </trkpt>
      <trkpt lat="44.29875" lon="3.29382">
        <ele>481</ele>
        <time>2014-05-31T11:19:06Z</time>
      </trkpt>
      <trkpt lat="44.29881" lon="3.29384">
        <ele>481</ele>
        <time>2014-05-31T11:19:22Z</time>
      </trkpt>
      <trkpt lat="44.29884" lon="3.29383">
        <ele>489</ele>
        <time>2014-05-31T11:19:31Z</time>
      </trkpt>
      <trkpt lat="44.29879" lon="3.29406">
        <ele>486</ele>
        <time>2014-05-31T11:19:40Z</time>
      </trkpt>
      <trkpt lat="44.29889" lon="3.29413">
        <ele>483</ele>
        <time>2014-05-31T11:19:50Z</time>
      </trkpt>
      <trkpt lat="44.29899" lon="3.29407">
        <ele>483</ele>
        <time>2014-05-31T11:20:01Z</time>
      </trkpt>
      <trkpt lat="44.29906" lon="3.29405">
        <ele>481</ele>
        <time>2014-05-31T11:20:10Z</time>
      </trkpt>
      <trkpt lat="44.29916" lon="3.29411">
        <ele>474</ele>
        <time>2014-05-31T11:20:20Z</time>
      </trkpt>
      <trkpt lat="44.29927" lon="3.29411">
        <ele>470</ele>
        <time>2014-05-31T11:20:30Z</time>
      </trkpt>
      <trkpt lat="44.29939" lon="3.29413">
        <ele>463</ele>
        <time>2014-05-31T11:20:41Z</time>
      </trkpt>
      <trkpt lat="44.29941" lon="3.29411">
        <ele>462</ele>
        <time>2014-05-31T11:20:50Z</time>
      </trkpt>
      <trkpt lat="44.29937" lon="3.29405">
        <ele>461</ele>
        <time>2014-05-31T11:20:59Z</time>
      </trkpt>
      <trkpt lat="44.29935" lon="3.29398">
        <ele>460</ele>
        <time>2014-05-31T11:21:13Z</time>
      </trkpt>
      <trkpt lat="44.29934" lon="3.29395">
        <ele>462</ele>
        <time>2014-05-31T11:21:22Z</time>
      </trkpt>
      <trkpt lat="44.29943" lon="3.29394">
        <ele>462</ele>
        <time>2014-05-31T11:21:33Z</time>
      </trkpt>
      <trkpt lat="44.29952" lon="3.29398">
        <ele>457</ele>
        <time>2014-05-31T11:21:42Z</time>
      </trkpt>
      <trkpt lat="44.29956" lon="3.29391">
        <ele>455</ele>
        <time>2014-05-31T11:21:53Z</time>
      </trkpt>
      <trkpt lat="44.29959" lon="3.29398">
        <ele>454</ele>
        <time>2014-05-31T11:22:05Z</time>
      </trkpt>
      <trkpt lat="44.29947" lon="3.29389">
        <ele>454</ele>
        <time>2014-05-31T11:22:15Z</time>
      </trkpt>
      <trkpt lat="44.29941" lon="3.29385">
        <ele>454</ele>
        <time>2014-05-31T11:22:24Z</time>
      </trkpt>
      <trkpt lat="44.29937" lon="3.2938">
        <ele>454</ele>
        <time>2014-05-31T11:22:36Z</time>
      </trkpt>
      <trkpt lat="44.29947" lon="3.29401">
        <ele>471</ele>
        <time>2014-05-31T11:22:47Z</time>
      </trkpt>
      <trkpt lat="44.29959" lon="3.29402">
        <ele>460</ele>
        <time>2014-05-31T11:22:57Z</time>
      </trkpt>
      <trkpt lat="44.29963" lon="3.29429">
        <ele>457</ele>
        <time>2014-05-31T11:23:12Z</time>
      </trkpt>
      <trkpt lat="44.29951" lon="3.29467">
        <ele>455</ele>
        <time>2014-05-31T11:23:21Z</time>
      </trkpt>
      <trkpt lat="44.29995" lon="3.29446">
        <ele>462</ele>
        <time>2014-05-31T11:23:31Z</time>
      </trkpt>
      <trkpt lat="44.30053" lon="3.29408">
        <ele>466</ele>
        <time>2014-05-31T11:23:40Z</time>
      </trkpt>
      <trkpt lat="44.30051" lon="3.29429">
        <ele>461</ele>
        <time>2014-05-31T11:23:49Z</time>
      </trkpt>
      <trkpt lat="44.30056" lon="3.29462">
        <ele>460</ele>
        <time>2014-05-31T11:24:12Z</time>
      </trkpt>
      <trkpt lat="44.30022" lon="3.2952">
        <ele>457</ele>
        <time>2014-05-31T11:24:21Z</time>
      </trkpt>
      <trkpt lat="44.30014" lon="3.29546">
        <ele>451</ele>
        <time>2014-05-31T11:24:31Z</time>
      </trkpt>
      <trkpt lat="44.30011" lon="3.29565">
        <ele>451</ele>
        <time>2014-05-31T11:24:40Z</time>
      </trkpt>
      <trkpt lat="44.30022" lon="3.29578">
        <ele>451</ele>
        <time>2014-05-31T11:24:49Z</time>
      </trkpt>
      <trkpt lat="44.30017" lon="3.29599">
        <ele>451</ele>
        <time>2014-05-31T11:24:58Z</time>
      </trkpt>
      <trkpt lat="44.30016" lon="3.29616">
        <ele>451</ele>
        <time>2014-05-31T11:25:07Z</time>
      </trkpt>
      <trkpt lat="44.30022" lon="3.2963">
        <ele>451</ele>
        <time>2014-05-31T11:25:17Z</time>
      </trkpt>
      <trkpt lat="44.30033" lon="3.29637">
        <ele>451</ele>
        <time>2014-05-31T11:25:27Z</time>
      </trkpt>
      <trkpt lat="44.30039" lon="3.29648">
        <ele>451</ele>
        <time>2014-05-31T11:25:37Z</time>
      </trkpt>
      <trkpt lat="44.30049" lon="3.29655">
        <ele>453</ele>
        <time>2014-05-31T11:25:47Z</time>
      </trkpt>
      <trkpt lat="44.30062" lon="3.29658">
        <ele>455</ele>
        <time>2014-05-31T11:25:58Z</time>
      </trkpt>
      <trkpt lat="44.30066" lon="3.29667">
        <ele>457</ele>
        <time>2014-05-31T11:26:08Z</time>
      </trkpt>
      <trkpt lat="44.30073" lon="3.29675">
        <ele>457</ele>
        <time>2014-05-31T11:26:17Z</time>
      </trkpt>
      <trkpt lat="44.30072" lon="3.29693">
        <ele>457</ele>
        <time>2014-05-31T11:26:26Z</time>
      </trkpt>
      <trkpt lat="44.30065" lon="3.29715">
        <ele>457</ele>
        <time>2014-05-31T11:26:36Z</time>
      </trkpt>
      <trkpt lat="44.30083" lon="3.29716">
        <ele>457</ele>
        <time>2014-05-31T11:26:45Z</time>
      </trkpt>
      <trkpt lat="44.30096" lon="3.29722">
        <ele>457</ele>
        <time>2014-05-31T11:26:55Z</time>
      </trkpt>
      <trkpt lat="44.30102" lon="3.29734">
        <ele>457</ele>
        <time>2014-05-31T11:27:04Z</time>
      </trkpt>
      <trkpt lat="44.30111" lon="3.29745">
        <ele>457</ele>
        <time>2014-05-31T11:27:14Z</time>
      </trkpt>
      <trkpt lat="44.3012" lon="3.29752">
        <ele>457</ele>
        <time>2014-05-31T11:27:23Z</time>
      </trkpt>
      <trkpt lat="44.3013" lon="3.29755">
        <ele>457</ele>
        <time>2014-05-31T11:27:32Z</time>
      </trkpt>
      <trkpt lat="44.30141" lon="3.2976">
        <ele>457</ele>
        <time>2014-05-31T11:27:43Z</time>
      </trkpt>
      <trkpt lat="44.30154" lon="3.29764">
        <ele>457</ele>
        <time>2014-05-31T11:27:52Z</time>
      </trkpt>
      <trkpt lat="44.30164" lon="3.29768">
        <ele>457</ele>
        <time>2014-05-31T11:28:01Z</time>
      </trkpt>
      <trkpt lat="44.30175" lon="3.29774">
        <ele>457</ele>
        <time>2014-05-31T11:28:11Z</time>
      </trkpt>
      <trkpt lat="44.30186" lon="3.29782">
        <ele>457</ele>
        <time>2014-05-31T11:28:21Z</time>
      </trkpt>
      <trkpt lat="44.30198" lon="3.29783">
        <ele>457</ele>
        <time>2014-05-31T11:28:31Z</time>
      </trkpt>
      <trkpt lat="44.30211" lon="3.29786">
        <ele>459</ele>
        <time>2014-05-31T11:28:40Z</time>
      </trkpt>
      <trkpt lat="44.30223" lon="3.29794">
        <ele>459</ele>
        <time>2014-05-31T11:28:49Z</time>
      </trkpt>
      <trkpt lat="44.30237" lon="3.29801">
        <ele>459</ele>
        <time>2014-05-31T11:28:59Z</time>
      </trkpt>
      <trkpt lat="44.30249" lon="3.29808">
        <ele>458</ele>
        <time>2014-05-31T11:29:09Z</time>
      </trkpt>
      <trkpt lat="44.30261" lon="3.29813">
        <ele>457</ele>
        <time>2014-05-31T11:29:18Z</time>
      </trkpt>
      <trkpt lat="44.30271" lon="3.29821">
        <ele>454</ele>
        <time>2014-05-31T11:29:27Z</time>
      </trkpt>
      <trkpt lat="44.30282" lon="3.29831">
        <ele>453</ele>
        <time>2014-05-31T11:29:37Z</time>
      </trkpt>
      <trkpt lat="44.30293" lon="3.29837">
        <ele>453</ele>
        <time>2014-05-31T11:29:46Z</time>
      </trkpt>
      <trkpt lat="44.30304" lon="3.29844">
        <ele>453</ele>
        <time>2014-05-31T11:29:55Z</time>
      </trkpt>
      <trkpt lat="44.30314" lon="3.29851">
        <ele>453</ele>
        <time>2014-05-31T11:30:04Z</time>
      </trkpt>
      <trkpt lat="44.30325" lon="3.29855">
        <ele>453</ele>
        <time>2014-05-31T11:30:13Z</time>
      </trkpt>
      <trkpt lat="44.30337" lon="3.29859">
        <ele>453</ele>
        <time>2014-05-31T11:30:22Z</time>
      </trkpt>
      <trkpt lat="44.30347" lon="3.29868">
        <ele>453</ele>
        <time>2014-05-31T11:30:32Z</time>
      </trkpt>
      <trkpt lat="44.30362" lon="3.2987">
        <ele>453</ele>
        <time>2014-05-31T11:30:41Z</time>
      </trkpt>
      <trkpt lat="44.30376" lon="3.29873">
        <ele>453</ele>
        <time>2014-05-31T11:30:50Z</time>
      </trkpt>
      <trkpt lat="44.30385" lon="3.29881">
        <ele>452</ele>
        <time>2014-05-31T11:30:59Z</time>
      </trkpt>
      <trkpt lat="44.30396" lon="3.29891">
        <ele>451</ele>
        <time>2014-05-31T11:31:08Z</time>
      </trkpt>
      <trkpt lat="44.30407" lon="3.29901">
        <ele>450</ele>
        <time>2014-05-31T11:31:17Z</time>
      </trkpt>
      <trkpt lat="44.30418" lon="3.29911">
        <ele>450</ele>
        <time>2014-05-31T11:31:26Z</time>
      </trkpt>
      <trkpt lat="44.30426" lon="3.29925">
        <ele>450</ele>
        <time>2014-05-31T11:31:35Z</time>
      </trkpt>
      <trkpt lat="44.30435" lon="3.29938">
        <ele>450</ele>
        <time>2014-05-31T11:31:45Z</time>
      </trkpt>
      <trkpt lat="44.30444" lon="3.2995">
        <ele>450</ele>
        <time>2014-05-31T11:31:54Z</time>
      </trkpt>
      <trkpt lat="44.30457" lon="3.29959">
        <ele>450</ele>
        <time>2014-05-31T11:32:04Z</time>
      </trkpt>
      <trkpt lat="44.3046" lon="3.29969">
        <ele>450</ele>
        <time>2014-05-31T11:32:13Z</time>
      </trkpt>
      <trkpt lat="44.30462" lon="3.29967">
        <ele>450</ele>
        <time>2014-05-31T11:32:29Z</time>
      </trkpt>
      <trkpt lat="44.30466" lon="3.29975">
        <ele>450</ele>
        <time>2014-05-31T11:32:40Z</time>
      </trkpt>
      <trkpt lat="44.30475" lon="3.29984">
        <ele>450</ele>
        <time>2014-05-31T11:32:49Z</time>
      </trkpt>
      <trkpt lat="44.30483" lon="3.29997">
        <ele>450</ele>
        <time>2014-05-31T11:32:58Z</time>
      </trkpt>
      <trkpt lat="44.30489" lon="3.30016">
        <ele>450</ele>
        <time>2014-05-31T11:33:10Z</time>
      </trkpt>
      <trkpt lat="44.30495" lon="3.30033">
        <ele>451</ele>
        <time>2014-05-31T11:33:21Z</time>
      </trkpt>
      <trkpt lat="44.305" lon="3.3005">
        <ele>452</ele>
        <time>2014-05-31T11:33:30Z</time>
      </trkpt>
      <trkpt lat="44.3051" lon="3.30064">
        <ele>454</ele>
        <time>2014-05-31T11:33:40Z</time>
      </trkpt>
      <trkpt lat="44.30502" lon="3.30087">
        <ele>463</ele>
        <time>2014-05-31T11:33:49Z</time>
      </trkpt>
      <trkpt lat="44.30507" lon="3.301">
        <ele>473</ele>
        <time>2014-05-31T11:33:59Z</time>
      </trkpt>
      <trkpt lat="44.30511" lon="3.30114">
        <ele>476</ele>
        <time>2014-05-31T11:34:10Z</time>
      </trkpt>
      <trkpt lat="44.30516" lon="3.30135">
        <ele>472</ele>
        <time>2014-05-31T11:34:21Z</time>
      </trkpt>
      <trkpt lat="44.30501" lon="3.30164">
        <ele>475</ele>
        <time>2014-05-31T11:34:30Z</time>
      </trkpt>
      <trkpt lat="44.30502" lon="3.30243">
        <ele>476</ele>
        <time>2014-05-31T11:35:14Z</time>
      </trkpt>
      <trkpt lat="44.30503" lon="3.30258">
        <ele>486</ele>
        <time>2014-05-31T11:35:24Z</time>
      </trkpt>
      <trkpt lat="44.30498" lon="3.30272">
        <ele>487</ele>
        <time>2014-05-31T11:35:33Z</time>
      </trkpt>
      <trkpt lat="44.30496" lon="3.30288">
        <ele>477</ele>
        <time>2014-05-31T11:35:43Z</time>
      </trkpt>
      <trkpt lat="44.3049" lon="3.30298">
        <ele>466</ele>
        <time>2014-05-31T11:35:52Z</time>
      </trkpt>
      <trkpt lat="44.3049" lon="3.30311">
        <ele>470</ele>
        <time>2014-05-31T11:36:01Z</time>
      </trkpt>
      <trkpt lat="44.3048" lon="3.30326">
        <ele>471</ele>
        <time>2014-05-31T11:36:10Z</time>
      </trkpt>
      <trkpt lat="44.30481" lon="3.30344">
        <ele>474</ele>
        <time>2014-05-31T11:36:21Z</time>
      </trkpt>
      <trkpt lat="44.30469" lon="3.30357">
        <ele>477</ele>
        <time>2014-05-31T11:36:32Z</time>
      </trkpt>
      <trkpt lat="44.3046" lon="3.30376">
        <ele>477</ele>
        <time>2014-05-31T11:36:43Z</time>
      </trkpt>
      <trkpt lat="44.30456" lon="3.30387">
        <ele>477</ele>
        <time>2014-05-31T11:36:52Z</time>
      </trkpt>
      <trkpt lat="44.30444" lon="3.30404">
        <ele>477</ele>
        <time>2014-05-31T11:37:02Z</time>
      </trkpt>
      <trkpt lat="44.30435" lon="3.30419">
        <ele>472</ele>
        <time>2014-05-31T11:37:13Z</time>
      </trkpt>
      <trkpt lat="44.30431" lon="3.30442">
        <ele>470</ele>
        <time>2014-05-31T11:37:23Z</time>
      </trkpt>
      <trkpt lat="44.30418" lon="3.30459">
        <ele>464</ele>
        <time>2014-05-31T11:37:34Z</time>
      </trkpt>
      <trkpt lat="44.30418" lon="3.30471">
        <ele>464</ele>
        <time>2014-05-31T11:37:44Z</time>
      </trkpt>
      <trkpt lat="44.30412" lon="3.30483">
        <ele>470</ele>
        <time>2014-05-31T11:37:53Z</time>
      </trkpt>
      <trkpt lat="44.304" lon="3.30503">
        <ele>469</ele>
        <time>2014-05-31T11:38:03Z</time>
      </trkpt>
      <trkpt lat="44.30392" lon="3.30518">
        <ele>463</ele>
        <time>2014-05-31T11:38:12Z</time>
      </trkpt>
      <trkpt lat="44.3039" lon="3.30525">
        <ele>463</ele>
        <time>2014-05-31T11:38:21Z</time>
      </trkpt>
      <trkpt lat="44.30381" lon="3.30549">
        <ele>464</ele>
        <time>2014-05-31T11:38:34Z</time>
      </trkpt>
      <trkpt lat="44.3038" lon="3.30558">
        <ele>471</ele>
        <time>2014-05-31T11:38:43Z</time>
      </trkpt>
      <trkpt lat="44.30375" lon="3.30573">
        <ele>475</ele>
        <time>2014-05-31T11:38:52Z</time>
      </trkpt>
      <trkpt lat="44.30367" lon="3.30595">
        <ele>476</ele>
        <time>2014-05-31T11:39:01Z</time>
      </trkpt>
      <trkpt lat="44.30361" lon="3.30614">
        <ele>475</ele>
        <time>2014-05-31T11:39:10Z</time>
      </trkpt>
      <trkpt lat="44.30356" lon="3.30633">
        <ele>469</ele>
        <time>2014-05-31T11:39:20Z</time>
      </trkpt>
      <trkpt lat="44.30345" lon="3.30646">
        <ele>467</ele>
        <time>2014-05-31T11:39:31Z</time>
      </trkpt>
      <trkpt lat="44.30345" lon="3.30653">
        <ele>472</ele>
        <time>2014-05-31T11:39:40Z</time>
      </trkpt>
      <trkpt lat="44.30331" lon="3.30669">
        <ele>474</ele>
        <time>2014-05-31T11:39:54Z</time>
      </trkpt>
      <trkpt lat="44.30324" lon="3.30685">
        <ele>478</ele>
        <time>2014-05-31T11:40:03Z</time>
      </trkpt>
      <trkpt lat="44.30316" lon="3.30699">
        <ele>478</ele>
        <time>2014-05-31T11:40:12Z</time>
      </trkpt>
      <trkpt lat="44.30308" lon="3.30714">
        <ele>476</ele>
        <time>2014-05-31T11:40:21Z</time>
      </trkpt>
      <trkpt lat="44.30299" lon="3.30728">
        <ele>473</ele>
        <time>2014-05-31T11:40:30Z</time>
      </trkpt>
      <trkpt lat="44.30293" lon="3.3074">
        <ele>469</ele>
        <time>2014-05-31T11:40:39Z</time>
      </trkpt>
      <trkpt lat="44.30288" lon="3.30752">
        <ele>469</ele>
        <time>2014-05-31T11:40:48Z</time>
      </trkpt>
      <trkpt lat="44.30282" lon="3.30769">
        <ele>469</ele>
        <time>2014-05-31T11:40:58Z</time>
      </trkpt>
      <trkpt lat="44.30274" lon="3.30784">
        <ele>464</ele>
        <time>2014-05-31T11:41:07Z</time>
      </trkpt>
      <trkpt lat="44.30265" lon="3.30795">
        <ele>461</ele>
        <time>2014-05-31T11:41:17Z</time>
      </trkpt>
      <trkpt lat="44.30258" lon="3.30805">
        <ele>468</ele>
        <time>2014-05-31T11:41:26Z</time>
      </trkpt>
      <trkpt lat="44.30247" lon="3.30821">
        <ele>469</ele>
        <time>2014-05-31T11:41:36Z</time>
      </trkpt>
      <trkpt lat="44.30237" lon="3.30837">
        <ele>468</ele>
        <time>2014-05-31T11:41:47Z</time>
      </trkpt>
      <trkpt lat="44.3023" lon="3.30849">
        <ele>468</ele>
        <time>2014-05-31T11:41:56Z</time>
      </trkpt>
      <trkpt lat="44.30219" lon="3.30864">
        <ele>468</ele>
        <time>2014-05-31T11:42:07Z</time>
      </trkpt>
      <trkpt lat="44.30213" lon="3.30872">
        <ele>468</ele>
        <time>2014-05-31T11:42:23Z</time>
      </trkpt>
      <trkpt lat="44.30209" lon="3.30875">
        <ele>467</ele>
        <time>2014-05-31T11:42:36Z</time>
      </trkpt>
      <trkpt lat="44.30203" lon="3.30885">
        <ele>466</ele>
        <time>2014-05-31T11:42:45Z</time>
      </trkpt>
      <trkpt lat="44.30194" lon="3.30898">
        <ele>465</ele>
        <time>2014-05-31T11:42:55Z</time>
      </trkpt>
      <trkpt lat="44.30182" lon="3.30907">
        <ele>464</ele>
        <time>2014-05-31T11:43:05Z</time>
      </trkpt>
      <trkpt lat="44.30172" lon="3.30922">
        <ele>464</ele>
        <time>2014-05-31T11:43:15Z</time>
      </trkpt>
      <trkpt lat="44.30159" lon="3.30929">
        <ele>464</ele>
        <time>2014-05-31T11:43:26Z</time>
      </trkpt>
      <trkpt lat="44.30148" lon="3.30937">
        <ele>468</ele>
        <time>2014-05-31T11:43:35Z</time>
      </trkpt>
      <trkpt lat="44.30122" lon="3.30981">
        <ele>476</ele>
        <time>2014-05-31T11:44:10Z</time>
      </trkpt>
      <trkpt lat="44.30117" lon="3.30999">
        <ele>470</ele>
        <time>2014-05-31T11:44:21Z</time>
      </trkpt>
      <trkpt lat="44.30111" lon="3.31012">
        <ele>470</ele>
        <time>2014-05-31T11:44:30Z</time>
      </trkpt>
      <trkpt lat="44.30102" lon="3.31025">
        <ele>469</ele>
        <time>2014-05-31T11:44:40Z</time>
      </trkpt>
      <trkpt lat="44.30088" lon="3.31033">
        <ele>469</ele>
        <time>2014-05-31T11:44:50Z</time>
      </trkpt>
      <trkpt lat="44.30073" lon="3.31033">
        <ele>469</ele>
        <time>2014-05-31T11:45:01Z</time>
      </trkpt>
      <trkpt lat="44.30059" lon="3.31035">
        <ele>469</ele>
        <time>2014-05-31T11:45:10Z</time>
      </trkpt>
      <trkpt lat="44.30046" lon="3.31031">
        <ele>469</ele>
        <time>2014-05-31T11:45:20Z</time>
      </trkpt>
      <trkpt lat="44.30032" lon="3.31037">
        <ele>469</ele>
        <time>2014-05-31T11:45:31Z</time>
      </trkpt>
      <trkpt lat="44.3002" lon="3.31041">
        <ele>469</ele>
        <time>2014-05-31T11:45:40Z</time>
      </trkpt>
      <trkpt lat="44.30006" lon="3.31045">
        <ele>468</ele>
        <time>2014-05-31T11:45:51Z</time>
      </trkpt>
      <trkpt lat="44.29993" lon="3.31045">
        <ele>468</ele>
        <time>2014-05-31T11:46:00Z</time>
      </trkpt>
      <trkpt lat="44.29969" lon="3.31041">
        <ele>468</ele>
        <time>2014-05-31T11:46:19Z</time>
      </trkpt>
      <trkpt lat="44.29952" lon="3.31044">
        <ele>467</ele>
        <time>2014-05-31T11:46:28Z</time>
      </trkpt>
      <trkpt lat="44.29937" lon="3.31042">
        <ele>474</ele>
        <time>2014-05-31T11:46:37Z</time>
      </trkpt>
      <trkpt lat="44.29931" lon="3.31047">
        <ele>479</ele>
        <time>2014-05-31T11:46:46Z</time>
      </trkpt>
      <trkpt lat="44.29933" lon="3.31057">
        <ele>483</ele>
        <time>2014-05-31T11:46:55Z</time>
      </trkpt>
      <trkpt lat="44.29914" lon="3.31077">
        <ele>483</ele>
        <time>2014-05-31T11:47:05Z</time>
      </trkpt>
      <trkpt lat="44.2992" lon="3.31095">
        <ele>480</ele>
        <time>2014-05-31T11:47:15Z</time>
      </trkpt>
      <trkpt lat="44.2992" lon="3.31107">
        <ele>485</ele>
        <time>2014-05-31T11:47:25Z</time>
      </trkpt>
      <trkpt lat="44.29911" lon="3.31122">
        <ele>485</ele>
        <time>2014-05-31T11:47:35Z</time>
      </trkpt>
      <trkpt lat="44.29895" lon="3.31133">
        <ele>485</ele>
        <time>2014-05-31T11:47:46Z</time>
      </trkpt>
      <trkpt lat="44.29873" lon="3.31142">
        <ele>475</ele>
        <time>2014-05-31T11:47:55Z</time>
      </trkpt>
      <trkpt lat="44.29858" lon="3.31144">
        <ele>466</ele>
        <time>2014-05-31T11:48:04Z</time>
      </trkpt>
      <trkpt lat="44.29847" lon="3.31154">
        <ele>464</ele>
        <time>2014-05-31T11:48:13Z</time>
      </trkpt>
      <trkpt lat="44.29846" lon="3.31156">
        <ele>463</ele>
        <time>2014-05-31T11:48:29Z</time>
      </trkpt>
      <trkpt lat="44.29845" lon="3.31157">
        <ele>461</ele>
        <time>2014-05-31T11:48:44Z</time>
      </trkpt>
      <trkpt lat="44.29838" lon="3.3117">
        <ele>459</ele>
        <time>2014-05-31T11:48:53Z</time>
      </trkpt>
      <trkpt lat="44.29836" lon="3.31187">
        <ele>458</ele>
        <time>2014-05-31T11:49:02Z</time>
      </trkpt>
      <trkpt lat="44.29831" lon="3.31206">
        <ele>458</ele>
        <time>2014-05-31T11:49:12Z</time>
      </trkpt>
      <trkpt lat="44.29828" lon="3.31219">
        <ele>457</ele>
        <time>2014-05-31T11:49:21Z</time>
      </trkpt>
      <trkpt lat="44.29823" lon="3.31234">
        <ele>453</ele>
        <time>2014-05-31T11:49:30Z</time>
      </trkpt>
      <trkpt lat="44.2983" lon="3.31252">
        <ele>454</ele>
        <time>2014-05-31T11:49:40Z</time>
      </trkpt>
      <trkpt lat="44.29829" lon="3.3127">
        <ele>461</ele>
        <time>2014-05-31T11:49:50Z</time>
      </trkpt>
      <trkpt lat="44.2983" lon="3.3129">
        <ele>460</ele>
        <time>2014-05-31T11:50:00Z</time>
      </trkpt>
      <trkpt lat="44.29832" lon="3.31308">
        <ele>458</ele>
        <time>2014-05-31T11:50:10Z</time>
      </trkpt>
      <trkpt lat="44.29836" lon="3.31325">
        <ele>458</ele>
        <time>2014-05-31T11:50:20Z</time>
      </trkpt>
      <trkpt lat="44.29831" lon="3.31336">
        <ele>458</ele>
        <time>2014-05-31T11:50:30Z</time>
      </trkpt>
      <trkpt lat="44.29823" lon="3.31349">
        <ele>457</ele>
        <time>2014-05-31T11:50:41Z</time>
      </trkpt>
      <trkpt lat="44.29821" lon="3.31367">
        <ele>457</ele>
        <time>2014-05-31T11:50:51Z</time>
      </trkpt>
      <trkpt lat="44.29826" lon="3.31382">
        <ele>457</ele>
        <time>2014-05-31T11:51:00Z</time>
      </trkpt>
      <trkpt lat="44.29836" lon="3.31395">
        <ele>456</ele>
        <time>2014-05-31T11:51:10Z</time>
      </trkpt>
      <trkpt lat="44.29849" lon="3.31403">
        <ele>456</ele>
        <time>2014-05-31T11:51:20Z</time>
      </trkpt>
      <trkpt lat="44.29862" lon="3.31407">
        <ele>456</ele>
        <time>2014-05-31T11:51:31Z</time>
      </trkpt>
      <trkpt lat="44.29863" lon="3.31408">
        <ele>456</ele>
        <time>2014-05-31T11:51:41Z</time>
      </trkpt>
      <trkpt lat="44.29875" lon="3.31415">
        <ele>456</ele>
        <time>2014-05-31T11:51:50Z</time>
      </trkpt>
      <trkpt lat="44.29885" lon="3.31427">
        <ele>456</ele>
        <time>2014-05-31T11:52:00Z</time>
      </trkpt>
      <trkpt lat="44.29892" lon="3.3144">
        <ele>456</ele>
        <time>2014-05-31T11:52:10Z</time>
      </trkpt>
      <trkpt lat="44.29903" lon="3.31452">
        <ele>456</ele>
        <time>2014-05-31T11:52:20Z</time>
      </trkpt>
      <trkpt lat="44.29913" lon="3.31464">
        <ele>456</ele>
        <time>2014-05-31T11:52:30Z</time>
      </trkpt>
      <trkpt lat="44.29921" lon="3.31474">
        <ele>456</ele>
        <time>2014-05-31T11:52:40Z</time>
      </trkpt>
      <trkpt lat="44.29924" lon="3.31476">
        <ele>456</ele>
        <time>2014-05-31T11:53:07Z</time>
      </trkpt>
      <trkpt lat="44.29926" lon="3.31481">
        <ele>456</ele>
        <time>2014-05-31T11:53:33Z</time>
      </trkpt>
      <trkpt lat="44.29936" lon="3.31495">
        <ele>456</ele>
        <time>2014-05-31T11:53:44Z</time>
      </trkpt>
      <trkpt lat="44.2994" lon="3.31509">
        <ele>456</ele>
        <time>2014-05-31T11:53:54Z</time>
      </trkpt>
      <trkpt lat="44.29946" lon="3.31523">
        <ele>456</ele>
        <time>2014-05-31T11:54:03Z</time>
      </trkpt>
      <trkpt lat="44.29955" lon="3.31536">
        <ele>457</ele>
        <time>2014-05-31T11:54:12Z</time>
      </trkpt>
      <trkpt lat="44.29962" lon="3.31547">
        <ele>458</ele>
        <time>2014-05-31T11:54:21Z</time>
      </trkpt>
      <trkpt lat="44.29968" lon="3.31559">
        <ele>458</ele>
        <time>2014-05-31T11:54:30Z</time>
      </trkpt>
      <trkpt lat="44.29975" lon="3.31574">
        <ele>458</ele>
        <time>2014-05-31T11:54:41Z</time>
      </trkpt>
      <trkpt lat="44.29983" lon="3.31589">
        <ele>458</ele>
        <time>2014-05-31T11:54:50Z</time>
      </trkpt>
      <trkpt lat="44.2999" lon="3.31605">
        <ele>460</ele>
        <time>2014-05-31T11:55:00Z</time>
      </trkpt>
      <trkpt lat="44.29995" lon="3.31618">
        <ele>461</ele>
        <time>2014-05-31T11:55:16Z</time>
      </trkpt>
      <trkpt lat="44.29993" lon="3.3162">
        <ele>461</ele>
        <time>2014-05-31T11:55:25Z</time>
      </trkpt>
      <trkpt lat="44.2999" lon="3.31621">
        <ele>461</ele>
        <time>2014-05-31T11:55:41Z</time>
      </trkpt>
      <trkpt lat="44.29989" lon="3.31633">
        <ele>462</ele>
        <time>2014-05-31T11:55:51Z</time>
      </trkpt>
      <trkpt lat="44.29982" lon="3.31647">
        <ele>467</ele>
        <time>2014-05-31T11:56:00Z</time>
      </trkpt>
      <trkpt lat="44.29978" lon="3.31668">
        <ele>467</ele>
        <time>2014-05-31T11:56:10Z</time>
      </trkpt>
      <trkpt lat="44.29988" lon="3.3169">
        <ele>476</ele>
        <time>2014-05-31T11:56:20Z</time>
      </trkpt>
      <trkpt lat="44.29994" lon="3.31707">
        <ele>485</ele>
        <time>2014-05-31T11:56:29Z</time>
      </trkpt>
      <trkpt lat="44.29992" lon="3.31722">
        <ele>481</ele>
        <time>2014-05-31T11:56:39Z</time>
      </trkpt>
      <trkpt lat="44.29991" lon="3.31739">
        <ele>472</ele>
        <time>2014-05-31T11:56:48Z</time>
      </trkpt>
      <trkpt lat="44.29986" lon="3.31757">
        <ele>463</ele>
        <time>2014-05-31T11:56:57Z</time>
      </trkpt>
      <trkpt lat="44.29985" lon="3.31775">
        <ele>457</ele>
        <time>2014-05-31T11:57:06Z</time>
      </trkpt>
      <trkpt lat="44.29984" lon="3.31794">
        <ele>457</ele>
        <time>2014-05-31T11:57:15Z</time>
      </trkpt>
      <trkpt lat="44.29987" lon="3.3181">
        <ele>457</ele>
        <time>2014-05-31T11:57:25Z</time>
      </trkpt>
      <trkpt lat="44.29988" lon="3.31828">
        <ele>457</ele>
        <time>2014-05-31T11:57:35Z</time>
      </trkpt>
      <trkpt lat="44.29988" lon="3.31846">
        <ele>457</ele>
        <time>2014-05-31T11:57:46Z</time>
      </trkpt>
      <trkpt lat="44.29988" lon="3.31866">
        <ele>457</ele>
        <time>2014-05-31T11:57:55Z</time>
      </trkpt>
      <trkpt lat="44.2999" lon="3.31885">
        <ele>457</ele>
        <time>2014-05-31T11:58:05Z</time>
      </trkpt>
      <trkpt lat="44.29991" lon="3.31904">
        <ele>457</ele>
        <time>2014-05-31T11:58:16Z</time>
      </trkpt>
      <trkpt lat="44.29989" lon="3.31921">
        <ele>457</ele>
        <time>2014-05-31T11:58:25Z</time>
      </trkpt>
      <trkpt lat="44.29988" lon="3.31938">
        <ele>456</ele>
        <time>2014-05-31T11:58:35Z</time>
      </trkpt>
      <trkpt lat="44.29991" lon="3.31956">
        <ele>457</ele>
        <time>2014-05-31T11:58:44Z</time>
      </trkpt>
      <trkpt lat="44.29987" lon="3.31975">
        <ele>457</ele>
        <time>2014-05-31T11:58:54Z</time>
      </trkpt>
      <trkpt lat="44.2999" lon="3.31986">
        <ele>454</ele>
        <time>2014-05-31T11:59:05Z</time>
      </trkpt>
      <trkpt lat="44.29989" lon="3.31991">
        <ele>454</ele>
        <time>2014-05-31T11:59:18Z</time>
      </trkpt>
      <trkpt lat="44.29988" lon="3.32008">
        <ele>454</ele>
        <time>2014-05-31T11:59:27Z</time>
      </trkpt>
      <trkpt lat="44.29989" lon="3.32026">
        <ele>453</ele>
        <time>2014-05-31T11:59:36Z</time>
      </trkpt>
      <trkpt lat="44.29994" lon="3.3204">
        <ele>453</ele>
        <time>2014-05-31T11:59:45Z</time>
      </trkpt>
      <trkpt lat="44.29999" lon="3.32056">
        <ele>453</ele>
        <time>2014-05-31T11:59:55Z</time>
      </trkpt>
      <trkpt lat="44.30002" lon="3.32073">
        <ele>453</ele>
        <time>2014-05-31T12:00:05Z</time>
      </trkpt>
      <trkpt lat="44.30011" lon="3.32091">
        <ele>456</ele>
        <time>2014-05-31T12:00:15Z</time>
      </trkpt>
      <trkpt lat="44.30016" lon="3.32105">
        <ele>456</ele>
        <time>2014-05-31T12:00:25Z</time>
      </trkpt>
      <trkpt lat="44.30022" lon="3.32109">
        <ele>456</ele>
        <time>2014-05-31T12:00:35Z</time>
      </trkpt>
      <trkpt lat="44.30024" lon="3.32109">
        <ele>457</ele>
        <time>2014-05-31T12:00:46Z</time>
      </trkpt>
      <trkpt lat="44.30026" lon="3.32109">
        <ele>457</ele>
        <time>2014-05-31T12:00:58Z</time>
      </trkpt>
      <trkpt lat="44.30026" lon="3.32107">
        <ele>457</ele>
        <time>2014-05-31T12:01:24Z</time>
      </trkpt>
      <trkpt lat="44.30027" lon="3.32095">
        <ele>453</ele>
        <time>2014-05-31T12:01:35Z</time>
      </trkpt>
      <trkpt lat="44.30039" lon="3.32085">
        <ele>453</ele>
        <time>2014-05-31T12:01:44Z</time>
      </trkpt>
      <trkpt lat="44.30048" lon="3.32078">
        <ele>453</ele>
        <time>2014-05-31T12:01:54Z</time>
      </trkpt>
      <trkpt lat="44.30059" lon="3.3207">
        <ele>453</ele>
        <time>2014-05-31T12:02:04Z</time>
      </trkpt>
      <trkpt lat="44.30069" lon="3.32063">
        <ele>453</ele>
        <time>2014-05-31T12:02:15Z</time>
      </trkpt>
      <trkpt lat="44.30075" lon="3.32055">
        <ele>451</ele>
        <time>2014-05-31T12:02:24Z</time>
      </trkpt>
      <trkpt lat="44.30085" lon="3.32047">
        <ele>451</ele>
        <time>2014-05-31T12:02:34Z</time>
      </trkpt>
      <trkpt lat="44.30098" lon="3.32037">
        <ele>451</ele>
        <time>2014-05-31T12:02:44Z</time>
      </trkpt>
      <trkpt lat="44.30109" lon="3.32032">
        <ele>451</ele>
        <time>2014-05-31T12:02:53Z</time>
      </trkpt>
      <trkpt lat="44.3012" lon="3.32033">
        <ele>451</ele>
        <time>2014-05-31T12:03:03Z</time>
      </trkpt>
      <trkpt lat="44.30123" lon="3.32018">
        <ele>451</ele>
        <time>2014-05-31T12:03:12Z</time>
      </trkpt>
      <trkpt lat="44.30145" lon="3.32027">
        <ele>454</ele>
        <time>2014-05-31T12:03:21Z</time>
      </trkpt>
      <trkpt lat="44.30126" lon="3.32027">
        <ele>454</ele>
        <time>2014-05-31T12:03:31Z</time>
      </trkpt>
      <trkpt lat="44.30117" lon="3.32039">
        <ele>456</ele>
        <time>2014-05-31T12:03:41Z</time>
      </trkpt>
      <trkpt lat="44.30117" lon="3.32055">
        <ele>456</ele>
        <time>2014-05-31T12:03:51Z</time>
      </trkpt>
      <trkpt lat="44.30123" lon="3.32073">
        <ele>455</ele>
        <time>2014-05-31T12:04:01Z</time>
      </trkpt>
      <trkpt lat="44.30118" lon="3.32085">
        <ele>451</ele>
        <time>2014-05-31T12:04:11Z</time>
      </trkpt>
      <trkpt lat="44.30114" lon="3.32099">
        <ele>448</ele>
        <time>2014-05-31T12:04:21Z</time>
      </trkpt>
      <trkpt lat="44.30107" lon="3.32111">
        <ele>444</ele>
        <time>2014-05-31T12:04:31Z</time>
      </trkpt>
      <trkpt lat="44.30107" lon="3.32117">
        <ele>444</ele>
        <time>2014-05-31T12:04:42Z</time>
      </trkpt>
      <trkpt lat="44.30108" lon="3.32114">
        <ele>444</ele>
        <time>2014-05-31T12:04:54Z</time>
      </trkpt>
      <trkpt lat="44.30105" lon="3.32113">
        <ele>444</ele>
        <time>2014-05-31T12:05:03Z</time>
      </trkpt>
      <trkpt lat="44.30104" lon="3.32111">
        <ele>447</ele>
        <time>2014-05-31T12:05:18Z</time>
      </trkpt>
      <trkpt lat="44.30101" lon="3.32102">
        <ele>452</ele>
        <time>2014-05-31T12:05:27Z</time>
      </trkpt>
      <trkpt lat="44.30101" lon="3.32105">
        <ele>469</ele>
        <time>2014-05-31T12:05:44Z</time>
      </trkpt>
      <trkpt lat="44.30104" lon="3.32111">
        <ele>469</ele>
        <time>2014-05-31T12:05:57Z</time>
      </trkpt>
      <trkpt lat="44.30103" lon="3.3211">
        <ele>467</ele>
        <time>2014-05-31T12:06:09Z</time>
      </trkpt>
      <trkpt lat="44.30105" lon="3.32113">
        <ele>463</ele>
        <time>2014-05-31T12:06:21Z</time>
      </trkpt>
      <trkpt lat="44.3011" lon="3.32117">
        <ele>458</ele>
        <time>2014-05-31T12:06:31Z</time>
      </trkpt>
      <trkpt lat="44.30109" lon="3.32117">
        <ele>452</ele>
        <time>2014-05-31T12:07:01Z</time>
      </trkpt>
      <trkpt lat="44.30112" lon="3.32119">
        <ele>449</ele>
        <time>2014-05-31T12:07:11Z</time>
      </trkpt>
      <trkpt lat="44.30124" lon="3.3213">
        <ele>443</ele>
        <time>2014-05-31T12:07:18Z</time>
      </trkpt>
    </trkseg>
  </trk>
</gpx>